Flight Track Log - Related Links

Times and Time Zones

All times are in EDT time to prevent confusion due to time zone crossing. See the SIA38 flight status page for this flight to view local times or setup timezone preferences in your user account.


Time Position Orientation Groundspeed Altitude Reporting Facility
EDT Latitude Longitude Course Direction KTS MPH feet Rate Location/Type
Sun 04:43:42 AM 1.3810 104.0070 38° Northeast 184 212 1,100  Level FlightAware ADS-B
Sun 04:43:57 AM 1.3920 104.0120 24° Northeast 184 212 1,500 1,600 Climbing FlightAware ADS-B
Sun 04:44:27 AM 1.4150 104.0220 23° Northeast 180 207 2,300 1,320 Climbing FlightAware ADS-B
Sun 04:44:47 AM 1.4320 104.0270 16° North 188 216 2,600 1,091 Climbing FlightAware ADS-B
Sun 04:45:22 AM 1.4630 104.0220 351° North 195 224 3,300 1,200 Climbing FlightAware ADS-B
Sun 04:45:52 AM 1.4900 104.0170 350° North 196 226 3,900 1,091 Climbing FlightAware ADS-B
Sun 04:46:17 AM 1.5120 104.0140 352° North 198 228 4,300 655 Climbing FlightAware ADS-B
Sun 04:46:47 AM 1.5420 104.0100 352° North 229 264 4,500 300 Climbing FlightAware ADS-B
Sun 04:47:17 AM 1.5760 104.0040 350° North 264 304 4,600 764 Climbing FlightAware ADS-B
Sun 04:47:42 AM 1.6100 103.9990 352° North 282 325 5,200 1,636 Climbing FlightAware ADS-B
Sun 04:48:12 AM 1.6490 103.9920 350° North 286 329 6,100 1,855 Climbing FlightAware ADS-B
Sun 04:48:37 AM 1.6810 103.9870 351° North 290 334 6,900 1,855 Climbing FlightAware ADS-B
Sun 04:49:07 AM 1.7200 103.9800 350° North 294 338 7,800 1,700 Climbing FlightAware ADS-B
Sun 04:49:37 AM 1.7610 103.9740 352° North 301 346 8,600 1,745 Climbing FlightAware ADS-B
Sun 04:50:02 AM 1.7970 103.9680 351° North 304 350 9,400 1,800 Climbing FlightAware ADS-B
Sun 04:50:17 AM 1.8170 103.9650 351° North 304 350 9,800 1,309 Climbing FlightAware ADS-B
Sun 04:50:57 AM 1.8740 103.9550 350° North 318 366 10,600 918 Climbing FlightAware ADS-B
Sun 04:51:42 AM 1.9450 103.9440 351° North 348 400 11,100 640 Climbing FlightAware ADS-B
Sun 04:52:12 AM 1.9880 103.9370 351° North 365 420 11,400 750 Climbing FlightAware ADS-B
Sun 04:53:02 AM 2.0830 103.9210 350° North 397 457 12,100 1,011 Climbing FlightAware ADS-B
Sun 04:53:47 AM 2.1620 103.9080 351° North 406 467 13,000 776 Climbing FlightAware ADS-B
Sun 04:54:27 AM 2.2310 103.8960 350° North 407 468 13,200 150 Climbing FlightAware ADS-B
Sun 04:55:07 AM 2.2940 103.8850 350° North 407 468 13,200 2,160 Level FlightAware ADS-B
Sun 04:55:17 AM 2.3270 103.8870 North 414 476 15,000 2,800 Climbing FlightAware ADS-B
Sun 04:56:07 AM 2.4050 103.9450 37° Northeast 404 465 16,000 918 Climbing FlightAware ADS-B
Sun 04:56:42 AM 2.4230 104.0040 73° East 402 463 16,300 1,200 Climbing FlightAware ADS-B
Sun 04:57:32 AM 2.4400 104.1010 80° East 411 473 17,700 1,400 Climbing FlightAware ADS-B
Sun 04:58:12 AM 2.4550 104.1780 79° East 418 481 18,400 1,059 Climbing FlightAware ADS-B
Sun 04:58:57 AM 2.4700 104.2600 80° East 420 483 19,200 988 Climbing FlightAware ADS-B
Sun 04:59:37 AM 2.4840 104.3380 80° East 426 490 19,800 975 Climbing FlightAware ADS-B
Sun 05:00:17 AM 2.4980 104.4150 80° East 430 495 20,500 975 Climbing FlightAware ADS-B
Sun 05:00:57 AM 2.5130 104.4950 79° East 435 501 21,100 918 Climbing FlightAware ADS-B
Sun 05:01:42 AM 2.5350 104.5830 76° East 437 503 21,800 847 Climbing FlightAware ADS-B
Sun 05:02:22 AM 2.5570 104.6650 75° East 444 511 22,300 776 Climbing FlightAware ADS-B
Sun 05:03:07 AM 2.5810 104.7520 75° East 448 516 22,900 847 Climbing FlightAware ADS-B
Sun 05:03:47 AM 2.6020 104.8290 75° East 452 520 23,500 825 Climbing FlightAware ADS-B
Sun 05:04:27 AM 2.6250 104.9130 75° East 458 527 24,000 776 Climbing FlightAware ADS-B
Sun 05:05:12 AM 2.6510 105.0080 75° East 464 534 24,600 847 Climbing FlightAware ADS-B
Sun 05:05:52 AM 2.6720 105.0880 75° East 469 540 25,200 900 Climbing FlightAware ADS-B
Sun 05:06:32 AM 2.6990 105.1730 72° East 470 541 25,800 847 Climbing FlightAware ADS-B
Sun 05:07:17 AM 2.7330 105.2650 70° East 476 548 26,400 847 Climbing FlightAware ADS-B
Sun 05:07:57 AM 2.7630 105.3490 70° East 480 552 27,000 560 Climbing FlightAware ADS-B
Sun 05:08:32 AM 2.7860 105.4130 70° East 487 560 27,100 675 Climbing FlightAware ADS-B
Sun 05:09:17 AM 2.8230 105.5150 70° East 487 560 27,900 533 Climbing FlightAware ADS-B
Sun 05:10:02 AM 2.8540 105.5980 69° East 487 560 27,900  Level FlightAware ADS-B
Sun 05:10:42 AM 2.8800 105.6700 70° East 487 560 27,900  Level FlightAware ADS-B
Sun 05:11:22 AM 2.9060 105.7420 70° East 487 560 27,900  Level FlightAware ADS-B
Sun 05:12:12 AM 2.9390 105.8320 70° East 487 560 27,900  Level FlightAware ADS-B
Sun 05:12:52 AM 2.9650 105.9050 70° East 487 560 27,900 45 Level FlightAware ADS-B
Sun 05:15:00 AM 3.1841 106.1212 45° Northeast  Level Estimated
Sun 05:16:00 AM 3.2868 106.2226 45° Northeast  Level Estimated
Sun 05:17:00 AM 3.3895 106.3240 45° Northeast  Level Estimated
Sun 05:18:00 AM 3.4922 106.4254 45° Northeast  Level Estimated
Sun 05:19:00 AM 3.5948 106.5268 45° Northeast  Level Estimated
Sun 05:20:00 AM 3.6975 106.6283 45° Northeast  Level Estimated
Sun 05:21:00 AM 3.8001 106.7298 45° Northeast  Level Estimated
Sun 05:22:00 AM 3.9028 106.8313 45° Northeast  Level Estimated
Sun 05:23:00 AM 4.0054 106.9328 45° Northeast  Level Estimated
Sun 05:24:00 AM 4.1080 107.0344 45° Northeast  Level Estimated
Sun 05:25:00 AM 4.2106 107.1360 45° Northeast  Level Estimated
Sun 05:26:00 AM 4.3131 107.2376 45° Northeast  Level Estimated
Sun 05:27:00 AM 4.4157 107.3392 45° Northeast  Level Estimated
Sun 05:28:00 AM 4.5183 107.4409 45° Northeast  Level Estimated
Sun 05:29:00 AM 4.6208 107.5426 45° Northeast  Level Estimated
Sun 05:30:00 AM 4.7233 107.6443 45° Northeast  Level Estimated
Sun 05:31:00 AM 4.8258 107.7461 45° Northeast  Level Estimated
Sun 05:32:00 AM 4.9283 107.8479 45° Northeast  Level Estimated
Sun 05:33:00 AM 5.0308 107.9497 45° Northeast  Level Estimated
Sun 05:34:00 AM 5.1333 108.0516 45° Northeast  Level Estimated
Sun 05:35:00 AM 5.2357 108.1534 45° Northeast  Level Estimated
Sun 05:36:00 AM 5.3381 108.2554 45° Northeast  Level Estimated
Sun 05:37:00 AM 5.4405 108.3573 45° Northeast  Level Estimated
Sun 05:38:00 AM 5.5429 108.4593 45° Northeast  Level Estimated
Sun 05:39:00 AM 5.6453 108.5613 45° Northeast  Level Estimated
Sun 05:40:00 AM 5.7477 108.6634 45° Northeast  Level Estimated
Sun 05:41:00 AM 5.8500 108.7655 45° Northeast  Level Estimated
Sun 05:42:00 AM 5.9523 108.8676 45° Northeast  Level Estimated
Sun 05:43:00 AM 6.0546 108.9698 45° Northeast  Level Estimated
Sun 05:44:00 AM 6.1569 109.0720 45° Northeast  Level Estimated
Sun 05:45:00 AM 6.2592 109.1742 45° Northeast  Level Estimated
Sun 05:46:00 AM 6.3614 109.2765 45° Northeast  Level Estimated
Sun 05:47:00 AM 6.4637 109.3789 45° Northeast  Level Estimated
Sun 05:48:00 AM 6.5659 109.4812 45° Northeast  Level Estimated
Sun 05:49:00 AM 6.6680 109.5836 45° Northeast  Level Estimated
Sun 05:50:00 AM 6.7702 109.6861 45° Northeast  Level Estimated
Sun 05:51:00 AM 6.8723 109.7886 45° Northeast  Level Estimated
Sun 05:52:00 AM 6.9745 109.8911 45° Northeast  Level Estimated
Sun 05:53:00 AM 7.0766 109.9937 45° Northeast  Level Estimated
Sun 05:54:00 AM 7.1786 110.0964 45° Northeast  Level Estimated
Sun 05:55:00 AM 7.2807 110.1990 45° Northeast  Level Estimated
Sun 05:56:00 AM 7.3827 110.3018 45° Northeast  Level Estimated
Sun 05:57:00 AM 7.4847 110.4045 45° Northeast  Level Estimated
Sun 05:58:00 AM 7.5867 110.5074 45° Northeast  Level Estimated
Sun 05:59:00 AM 7.6887 110.6102 45° Northeast  Level Estimated
Sun 06:00:00 AM 7.7906 110.7132 45° Northeast  Level Estimated
Sun 06:01:00 AM 7.8925 110.8161 45° Northeast  Level Estimated
Sun 06:02:00 AM 7.9944 110.9191 45° Northeast  Level Estimated
Sun 06:03:00 AM 8.0962 111.0222 45° Northeast  Level Estimated
Sun 06:04:00 AM 8.1981 111.1253 45° Northeast  Level Estimated
Sun 06:05:00 AM 8.2999 111.2285 45° Northeast  Level Estimated
Sun 06:06:00 AM 8.4017 111.3317 45° Northeast  Level Estimated
Sun 06:07:00 AM 8.5034 111.4350 45° Northeast  Level Estimated
Sun 06:08:00 AM 8.6052 111.5384 45° Northeast  Level Estimated
Sun 06:09:00 AM 8.7069 111.6418 45° Northeast  Level Estimated
Sun 06:10:00 AM 8.8085 111.7452 45° Northeast  Level Estimated
Sun 06:11:00 AM 8.9102 111.8487 45° Northeast  Level Estimated
Sun 06:12:00 AM 9.0118 111.9523 45° Northeast  Level Estimated
Sun 06:13:00 AM 9.1133 112.0559 45° Northeast  Level Estimated
Sun 06:14:00 AM 9.2149 112.1596 45° Northeast  Level Estimated
Sun 06:15:00 AM 9.3164 112.2633 45° Northeast  Level Estimated
Sun 06:16:00 AM 9.4179 112.3671 45° Northeast  Level Estimated
Sun 06:17:00 AM 9.5194 112.4710 45° Northeast  Level Estimated
Sun 06:18:00 AM 9.6208 112.5749 45° Northeast  Level Estimated
Sun 06:19:00 AM 9.7222 112.6789 45° Northeast  Level Estimated
Sun 06:20:00 AM 9.8236 112.7830 45° Northeast  Level Estimated
Sun 06:21:00 AM 9.9249 112.8871 45° Northeast  Level Estimated
Sun 06:22:00 AM 10.0262 112.9912 45° Northeast  Level Estimated
Sun 06:23:00 AM 10.1275 113.0955 45° Northeast  Level Estimated
Sun 06:24:00 AM 10.2287 113.1998 45° Northeast  Level Estimated
Sun 06:25:00 AM 10.3299 113.3042 45° Northeast  Level Estimated
Sun 06:26:00 AM 10.4311 113.4086 45° Northeast  Level Estimated
Sun 06:27:00 AM 10.5323 113.5131 45° Northeast  Level Estimated
Sun 06:28:00 AM 10.6334 113.6177 45° Northeast  Level Estimated
Sun 06:29:00 AM 10.7344 113.7224 45° Northeast  Level Estimated
Sun 06:30:00 AM 10.8355 113.8271 46° Northeast  Level Estimated
Sun 06:31:00 AM 10.9365 113.9319 46° Northeast  Level Estimated
Sun 06:32:00 AM 11.0374 114.0367 46° Northeast  Level Estimated
Sun 06:33:00 AM 11.1384 114.1417 46° Northeast  Level Estimated
Sun 06:34:00 AM 11.2393 114.2467 46° Northeast  Level Estimated
Sun 06:35:00 AM 11.3401 114.3518 46° Northeast  Level Estimated
Sun 06:36:00 AM 11.4409 114.4569 46° Northeast  Level Estimated
Sun 06:37:00 AM 11.5417 114.5621 46° Northeast  Level Estimated
Sun 06:38:00 AM 11.6425 114.6674 46° Northeast  Level Estimated
Sun 06:39:00 AM 11.7432 114.7728 46° Northeast  Level Estimated
Sun 06:40:00 AM 11.8438 114.8783 46° Northeast  Level Estimated
Sun 06:41:00 AM 11.9445 114.9838 46° Northeast  Level Estimated
Sun 06:42:00 AM 12.0451 115.0894 46° Northeast  Level Estimated
Sun 06:43:00 AM 12.1456 115.1951 46° Northeast  Level Estimated
Sun 06:44:00 AM 12.2461 115.3009 46° Northeast  Level Estimated
Sun 06:45:00 AM 12.3466 115.4067 46° Northeast  Level Estimated
Sun 06:46:00 AM 12.4470 115.5127 46° Northeast  Level Estimated
Sun 06:47:00 AM 12.5474 115.6187 46° Northeast  Level Estimated
Sun 06:48:00 AM 12.6477 115.7248 46° Northeast  Level Estimated
Sun 06:49:00 AM 12.7480 115.8310 46° Northeast  Level Estimated
Sun 06:50:00 AM 12.8483 115.9372 46° Northeast  Level Estimated
Sun 06:51:00 AM 12.9485 116.0436 46° Northeast  Level Estimated
Sun 06:52:00 AM 13.0487 116.1500 46° Northeast  Level Estimated
Sun 06:53:00 AM 13.1488 116.2566 46° Northeast  Level Estimated
Sun 06:54:00 AM 13.2489 116.3632 46° Northeast  Level Estimated
Sun 06:55:00 AM 13.3490 116.4699 46° Northeast  Level Estimated
Sun 06:56:00 AM 13.4490 116.5767 46° Northeast  Level Estimated
Sun 06:57:00 AM 13.5489 116.6835 46° Northeast  Level Estimated
Sun 06:58:00 AM 13.6488 116.7905 46° Northeast  Level Estimated
Sun 06:59:00 AM 13.7487 116.8976 46° Northeast  Level Estimated
Sun 07:00:00 AM 13.8485 117.0047 46° Northeast  Level Estimated
Sun 07:01:00 AM 13.9483 117.1120 46° Northeast  Level Estimated
Sun 07:02:00 AM 14.0480 117.2193 46° Northeast  Level Estimated
Sun 07:03:00 AM 14.1477 117.3267 46° Northeast  Level Estimated
Sun 07:04:00 AM 14.2473 117.4342 46° Northeast  Level Estimated
Sun 07:05:00 AM 14.3469 117.5419 46° Northeast  Level Estimated
Sun 07:06:00 AM 14.4464 117.6496 46° Northeast  Level Estimated
Sun 07:07:00 AM 14.5459 117.7574 46° Northeast  Level Estimated
Sun 07:08:00 AM 14.6453 117.8653 46° Northeast  Level Estimated
Sun 07:09:00 AM 14.7447 117.9733 46° Northeast  Level Estimated
Sun 07:10:00 AM 14.8440 118.0814 46° Northeast  Level Estimated
Sun 07:11:00 AM 14.9433 118.1896 46° Northeast  Level Estimated
Sun 07:12:00 AM 15.0425 118.2979 46° Northeast  Level Estimated
Sun 07:13:00 AM 15.1417 118.4063 47° Northeast  Level Estimated
Sun 07:14:00 AM 15.2408 118.5148 47° Northeast  Level Estimated
Sun 07:15:00 AM 15.3399 118.6234 47° Northeast  Level Estimated
Sun 07:16:00 AM 15.4389 118.7321 47° Northeast  Level Estimated
Sun 07:17:00 AM 15.5379 118.8409 47° Northeast  Level Estimated
Sun 07:18:00 AM 15.6368 118.9498 47° Northeast  Level Estimated
Sun 07:19:00 AM 15.7357 119.0589 47° Northeast  Level Estimated
Sun 07:20:00 AM 15.8345 119.1680 47° Northeast  Level Estimated
Sun 07:21:00 AM 15.9332 119.2772 47° Northeast  Level Estimated
Sun 07:22:00 AM 16.0319 119.3866 47° Northeast  Level Estimated
Sun 07:23:00 AM 16.1306 119.4960 47° Northeast  Level Estimated
Sun 07:24:00 AM 16.2292 119.6056 47° Northeast  Level Estimated
Sun 07:25:00 AM 16.3277 119.7152 47° Northeast  Level Estimated
Sun 07:26:00 AM 16.4262 119.8250 47° Northeast  Level Estimated
Sun 07:27:00 AM 16.5246 119.9349 47° Northeast  Level Estimated
Sun 07:28:00 AM 16.6229 120.0449 47° Northeast  Level Estimated
Sun 07:29:00 AM 16.7213 120.1550 47° Northeast  Level Estimated
Sun 07:30:00 AM 16.8195 120.2653 47° Northeast  Level Estimated
Sun 07:31:00 AM 16.9177 120.3756 47° Northeast  Level Estimated
Sun 07:32:00 AM 17.0158 120.4861 47° Northeast  Level Estimated
Sun 07:33:00 AM 17.1139 120.5966 47° Northeast  Level Estimated
Sun 07:34:00 AM 17.2119 120.7073 47° Northeast  Level Estimated
Sun 07:35:00 AM 17.3098 120.8182 47° Northeast  Level Estimated
Sun 07:36:00 AM 17.4077 120.9291 47° Northeast  Level Estimated
Sun 07:37:00 AM 17.5055 121.0401 47° Northeast  Level Estimated
Sun 07:38:00 AM 17.6033 121.1513 47° Northeast  Level Estimated
Sun 07:39:00 AM 17.7010 121.2626 47° Northeast  Level Estimated
Sun 07:40:00 AM 17.7986 121.3740 47° Northeast  Level Estimated
Sun 07:41:00 AM 17.8962 121.4855 47° Northeast  Level Estimated
Sun 07:42:00 AM 17.9937 121.5972 47° Northeast  Level Estimated
Sun 07:43:00 AM 18.0911 121.7090 47° Northeast  Level Estimated
Sun 07:44:00 AM 18.1885 121.8209 48° Northeast  Level Estimated
Sun 07:45:00 AM 18.2858 121.9329 48° Northeast  Level Estimated
Sun 07:46:00 AM 18.3831 122.0450 48° Northeast  Level Estimated
Sun 07:47:00 AM 18.4803 122.1573 48° Northeast  Level Estimated
Sun 07:48:00 AM 18.5774 122.2697 48° Northeast  Level Estimated
Sun 07:49:00 AM 18.6744 122.3822 48° Northeast  Level Estimated
Sun 07:49:42 AM 19.1400 120.3040 48° Northeast 496 571 35,000  Level FlightAware ADS-B
Sun 07:50:00 AM 18.7714 122.4949 48° Northeast  Level Estimated
Sun 07:50:22 AM 19.1950 120.3680 48° Northeast 497 572 35,000  Level FlightAware ADS-B
Sun 07:51:22 AM 19.2910 120.4810 48° Northeast 500 575 35,000  Level FlightAware ADS-B
Sun 07:52:02 AM 19.3430 120.5430 48° Northeast 500 575 35,000  Level FlightAware ADS-B
Sun 07:52:42 AM 19.3960 120.6050 48° Northeast 500 575 35,000  Level FlightAware ADS-B
Sun 07:53:37 AM 19.4930 120.7220 49° Northeast 503 579 35,000  Level FlightAware ADS-B
Sun 07:54:17 AM 19.5460 120.7850 48° Northeast 503 579 35,000  Level FlightAware ADS-B
Sun 07:55:07 AM 19.6400 120.8980 49° Northeast 501 577 35,000  Level FlightAware ADS-B
Sun 07:55:42 AM 19.6890 120.9560 48° Northeast 501 577 35,000  Level FlightAware ADS-B
Sun 07:56:42 AM 19.7890 121.0770 49° Northeast 501 577 35,000  Level FlightAware ADS-B
Sun 07:57:27 AM 19.8500 121.1490 48° Northeast 502 578 35,000  Level FlightAware ADS-B
Sun 07:58:07 AM 19.9200 121.2340 49° Northeast 500 575 35,000  Level FlightAware ADS-B
Sun 07:58:57 AM 19.9920 121.3210 49° Northeast 503 579 35,000  Level FlightAware ADS-B
Sun 07:59:37 AM 20.0520 121.3940 49° Northeast 502 578 35,000  Level FlightAware ADS-B
Sun 08:00:42 AM 20.1540 121.5170 49° Northeast 501 577 35,000  Level FlightAware ADS-B
Sun 08:01:22 AM 20.2160 121.5920 49° Northeast 503 579 35,000  Level FlightAware ADS-B
Sun 08:02:02 AM 20.2770 121.6660 49° Northeast 504 580 35,000  Level FlightAware ADS-B
Sun 08:02:42 AM 20.3380 121.7410 49° Northeast 505 581 35,000  Level FlightAware ADS-B
Sun 08:03:32 AM 20.4140 121.8330 49° Northeast 504 580 35,000  Level FlightAware ADS-B
Sun 08:04:07 AM 20.4690 121.9000 49° Northeast 503 579 35,000  Level FlightAware ADS-B
Sun 08:04:52 AM 20.5410 121.9870 49° Northeast 501 577 35,000  Level FlightAware ADS-B
Sun 08:05:37 AM 20.6010 122.0610 49° Northeast 503 579 35,000  Level FlightAware ADS-B
Sun 08:06:17 AM 20.6690 122.1430 48° Northeast 504 580 35,000  Level FlightAware ADS-B
Sun 08:06:52 AM 20.7230 122.2100 49° Northeast 504 580 35,000  Level FlightAware ADS-B
Sun 08:07:37 AM 20.7920 122.2950 49° Northeast 506 582 35,000  Level FlightAware ADS-B
Sun 08:08:27 AM 20.8720 122.3920 49° Northeast 508 585 35,000  Level FlightAware ADS-B
Sun 08:09:02 AM 20.9200 122.4520 49° Northeast 509 586 35,000  Level FlightAware ADS-B
Sun 08:09:57 AM 21.0100 122.5530 46° Northeast 509 586 35,000  Level FlightAware ADS-B
Sun 08:10:37 AM 21.0660 122.6130 45° Northeast 509 586 35,000  Level FlightAware ADS-B
Sun 08:11:27 AM 21.1370 122.6890 45° Northeast 509 586 35,000  Level FlightAware ADS-B
Sun 08:11:57 AM 21.1790 122.7350 46° Northeast 509 586 35,000  Level FlightAware ADS-B
Sun 08:12:37 AM 21.2360 122.7950 44° Northeast 509 586 35,000  Level FlightAware ADS-B
Sun 08:13:07 AM 21.2780 122.8410 46° Northeast 509 586 35,000  Level FlightAware ADS-B
Sun 08:13:47 AM 21.3350 122.9020 45° Northeast 509 586 35,000  Level FlightAware ADS-B
Sun 08:14:17 AM 21.3780 122.9470 44° Northeast 509 586 35,000  Level FlightAware ADS-B
Sun 08:15:07 AM 21.4480 123.0230 45° Northeast 509 586 35,000  Level FlightAware ADS-B
Sun 08:15:47 AM 21.5050 123.0840 45° Northeast 509 586 35,000  Level FlightAware ADS-B
Sun 08:16:27 AM 21.5620 123.1450 45° Northeast 509 586 35,000  Level FlightAware ADS-B
Sun 08:17:07 AM 21.6180 123.2060 45° Northeast 509 586 35,000  Level FlightAware ADS-B
Sun 08:17:47 AM 21.6750 123.2670 45° Northeast 509 586 35,000  Level FlightAware ADS-B
Sun 08:18:37 AM 21.7460 123.3430 45° Northeast 509 586 35,000  Level FlightAware ADS-B
Sun 08:19:17 AM 21.8020 123.4040 45° Northeast 509 586 35,000 16 Level FlightAware ADS-B
Sun 08:21:00 AM 21.9683 123.6016 48° Northeast  Level Estimated
Sun 08:22:00 AM 22.0650 123.7169 48° Northeast  Level Estimated
Sun 08:23:00 AM 22.1617 123.8324 48° Northeast  Level Estimated
Sun 08:24:00 AM 22.2583 123.9480 48° Northeast  Level Estimated
Sun 08:25:00 AM 22.3548 124.0638 48° Northeast  Level Estimated
Sun 08:26:00 AM 22.4512 124.1798 48° Northeast  Level Estimated
Sun 08:27:00 AM 22.5476 124.2959 48° Northeast  Level Estimated
Sun 08:28:00 AM 22.6438 124.4122 48° Northeast  Level Estimated
Sun 08:29:00 AM 22.7400 124.5286 48° Northeast  Level Estimated
Sun 08:30:00 AM 22.8361 124.6452 48° Northeast  Level Estimated
Sun 08:31:00 AM 22.9321 124.7620 48° Northeast  Level Estimated
Sun 08:32:00 AM 23.0280 124.8790 48° Northeast  Level Estimated
Sun 08:33:00 AM 23.1239 124.9960 48° Northeast  Level Estimated
Sun 08:34:00 AM 23.2196 125.1133 48° Northeast  Level Estimated
Sun 08:35:00 AM 23.3153 125.2308 48° Northeast  Level Estimated
Sun 08:36:00 AM 23.4109 125.3484 48° Northeast  Level Estimated
Sun 08:37:00 AM 23.5063 125.4661 49° Northeast  Level Estimated
Sun 08:38:00 AM 23.6017 125.5841 49° Northeast  Level Estimated
Sun 08:39:00 AM 23.6971 125.7022 49° Northeast  Level Estimated
Sun 08:40:00 AM 23.7923 125.8205 49° Northeast  Level Estimated
Sun 08:41:00 AM 23.8874 125.9390 49° Northeast  Level Estimated
Sun 08:42:00 AM 23.9824 126.0576 49° Northeast  Level Estimated
Sun 08:43:00 AM 24.0774 126.1764 49° Northeast  Level Estimated
Sun 08:44:00 AM 24.1722 126.2954 49° Northeast  Level Estimated
Sun 08:45:00 AM 24.2670 126.4146 49° Northeast  Level Estimated
Sun 08:46:00 AM 24.3617 126.5339 49° Northeast  Level Estimated
Sun 08:47:00 AM 24.4562 126.6535 49° Northeast  Level Estimated
Sun 08:48:00 AM 24.5507 126.7732 49° Northeast  Level Estimated
Sun 08:49:00 AM 24.6451 126.8930 49° Northeast  Level Estimated
Sun 08:50:00 AM 24.7394 127.0131 49° Northeast  Level Estimated
Sun 08:51:00 AM 24.8336 127.1334 49° Northeast  Level Estimated
Sun 08:52:00 AM 24.9277 127.2538 49° Northeast  Level Estimated
Sun 08:53:00 AM 25.0217 127.3744 49° Northeast  Level Estimated
Sun 08:54:00 AM 25.1156 127.4952 49° Northeast  Level Estimated
Sun 08:55:00 AM 25.2094 127.6162 49° Northeast  Level Estimated
Sun 08:56:00 AM 25.3031 127.7374 49° Northeast  Level Estimated
Sun 08:57:00 AM 25.3967 127.8587 49° Northeast  Level Estimated
Sun 08:58:00 AM 25.4902 127.9803 50° Northeast  Level Estimated
Sun 08:59:00 AM 25.5836 128.1020 50° Northeast  Level Estimated
Sun 09:00:00 AM 25.6770 128.2239 50° Northeast  Level Estimated
Sun 09:01:00 AM 25.7702 128.3461 50° Northeast  Level Estimated
Sun 09:02:00 AM 25.8633 128.4684 50° Northeast  Level Estimated
Sun 09:03:00 AM 25.9563 128.5909 50° Northeast  Level Estimated
Sun 09:04:00 AM 26.0492 128.7136 50° Northeast  Level Estimated
Sun 09:05:00 AM 26.1420 128.8365 50° Northeast  Level Estimated
Sun 09:06:00 AM 26.2346 128.9595 50° Northeast  Level Estimated
Sun 09:07:00 AM 26.3272 129.0828 50° Northeast  Level Estimated
Sun 09:08:00 AM 26.4197 129.2063 50° Northeast  Level Estimated
Sun 09:09:00 AM 26.5121 129.3300 50° Northeast  Level Estimated
Sun 09:10:00 AM 26.6043 129.4539 50° Northeast  Level Estimated
Sun 09:11:00 AM 26.6965 129.5779 50° Northeast  Level Estimated
Sun 09:12:00 AM 26.7885 129.7022 50° Northeast  Level Estimated
Sun 09:13:00 AM 26.8805 129.8267 50° Northeast  Level Estimated
Sun 09:14:00 AM 26.9723 129.9514 50° Northeast  Level Estimated
Sun 09:15:00 AM 27.0640 130.0763 50° Northeast  Level Estimated
Sun 09:16:00 AM 27.1556 130.2014 51° Northeast  Level Estimated
Sun 09:17:00 AM 27.2472 130.3266 51° Northeast  Level Estimated
Sun 09:18:00 AM 27.3385 130.4521 51° Northeast  Level Estimated
Sun 09:19:00 AM 27.4298 130.5779 51° Northeast  Level Estimated
Sun 09:20:00 AM 27.5210 130.7038 51° Northeast  Level Estimated
Sun 09:21:00 AM 27.6120 130.8299 51° Northeast  Level Estimated
Sun 09:22:00 AM 27.7030 130.9562 51° Northeast  Level Estimated
Sun 09:23:00 AM 27.7938 131.0828 51° Northeast  Level Estimated
Sun 09:24:00 AM 27.8845 131.2095 51° Northeast  Level Estimated
Sun 09:25:00 AM 27.9751 131.3365 51° Northeast  Level Estimated
Sun 09:26:00 AM 28.0656 131.4637 51° Northeast  Level Estimated
Sun 09:27:00 AM 28.1559 131.5911 51° Northeast  Level Estimated
Sun 09:28:00 AM 28.2462 131.7187 51° Northeast  Level Estimated
Sun 09:29:00 AM 28.3363 131.8465 51° Northeast  Level Estimated
Sun 09:30:00 AM 28.4263 131.9745 51° Northeast  Level Estimated
Sun 09:31:00 AM 28.5162 132.1028 51° Northeast  Level Estimated
Sun 09:32:00 AM 28.6059 132.2313 51° Northeast  Level Estimated
Sun 09:33:00 AM 28.6956 132.3600 52° Northeast  Level Estimated
Sun 09:34:00 AM 28.7851 132.4889 52° Northeast  Level Estimated
Sun 09:35:00 AM 28.8745 132.6181 52° Northeast  Level Estimated
Sun 09:36:00 AM 28.9637 132.7474 52° Northeast  Level Estimated
Sun 09:37:00 AM 29.0529 132.8770 52° Northeast  Level Estimated
Sun 09:38:00 AM 29.1419 133.0068 52° Northeast  Level Estimated
Sun 09:39:00 AM 29.2308 133.1369 52° Northeast  Level Estimated
Sun 09:40:00 AM 29.3196 133.2671 52° Northeast  Level Estimated
Sun 09:41:00 AM 29.4082 133.3976 52° Northeast  Level Estimated
Sun 09:42:00 AM 29.4967 133.5283 52° Northeast  Level Estimated
Sun 09:43:00 AM 29.5851 133.6593 52° Northeast  Level Estimated
Sun 09:44:00 AM 29.6734 133.7904 52° Northeast  Level Estimated
Sun 09:45:00 AM 29.7615 133.9218 52° Northeast  Level Estimated
Sun 09:46:00 AM 29.8495 134.0535 52° Northeast  Level Estimated
Sun 09:47:00 AM 29.9374 134.1853 52° Northeast  Level Estimated
Sun 09:48:00 AM 30.0251 134.3174 52° Northeast  Level Estimated
Sun 09:49:00 AM 30.1127 134.4498 53° Northeast  Level Estimated
Sun 09:50:00 AM 30.2002 134.5823 53° Northeast  Level Estimated
Sun 09:51:00 AM 30.2875 134.7151 53° Northeast  Level Estimated
Sun 09:52:00 AM 30.3748 134.8482 53° Northeast  Level Estimated
Sun 09:53:00 AM 30.4618 134.9815 53° Northeast  Level Estimated
Sun 09:54:00 AM 30.5487 135.1150 53° Northeast  Level Estimated
Sun 09:55:00 AM 30.6355 135.2487 53° Northeast  Level Estimated
Sun 09:56:00 AM 30.7222 135.3827 53° Northeast  Level Estimated
Sun 09:57:00 AM 30.8087 135.5170 53° Northeast  Level Estimated
Sun 09:58:00 AM 30.8951 135.6515 53° Northeast  Level Estimated
Sun 09:59:00 AM 30.9813 135.7862 53° Northeast  Level Estimated
Sun 10:00:00 AM 31.0674 135.9211 53° Northeast  Level Estimated
Sun 10:01:00 AM 31.1534 136.0564 53° Northeast  Level Estimated
Sun 10:02:00 AM 31.2392 136.1918 53° Northeast  Level Estimated
Sun 10:03:00 AM 31.3249 136.3275 54° Northeast  Level Estimated
Sun 10:04:00 AM 31.4104 136.4635 54° Northeast  Level Estimated
Sun 10:05:00 AM 31.4958 136.5997 54° Northeast  Level Estimated
Sun 10:06:00 AM 31.5811 136.7361 54° Northeast  Level Estimated
Sun 10:07:00 AM 31.6662 136.8728 54° Northeast  Level Estimated
Sun 10:08:00 AM 31.7512 137.0097 54° Northeast  Level Estimated
Sun 10:09:00 AM 31.8360 137.1469 54° Northeast  Level Estimated
Sun 10:10:00 AM 31.9206 137.2844 54° Northeast  Level Estimated
Sun 10:11:00 AM 32.0051 137.4221 54° Northeast  Level Estimated
Sun 10:12:00 AM 32.0895 137.5600 54° Northeast  Level Estimated
Sun 10:13:00 AM 32.1737 137.6982 54° Northeast  Level Estimated
Sun 10:14:00 AM 32.2578 137.8367 54° Northeast  Level Estimated
Sun 10:15:00 AM 32.3417 137.9754 54° Northeast  Level Estimated
Sun 10:16:00 AM 32.4255 138.1144 54° Northeast  Level Estimated
Sun 10:17:00 AM 32.5091 138.2536 55° Northeast  Level Estimated
Sun 10:18:00 AM 32.5925 138.3931 55° Northeast  Level Estimated
Sun 10:19:00 AM 32.6758 138.5329 55° Northeast  Level Estimated
Sun 10:20:00 AM 32.7590 138.6729 55° Northeast  Level Estimated
Sun 10:21:00 AM 32.8420 138.8132 55° Northeast  Level Estimated
Sun 10:22:00 AM 32.9248 138.9537 55° Northeast  Level Estimated
Sun 10:23:00 AM 33.0075 139.0945 55° Northeast  Level Estimated
Sun 10:24:00 AM 33.0900 139.2356 55° Northeast  Level Estimated
Sun 10:25:00 AM 33.1724 139.3769 55° Northeast  Level Estimated
Sun 10:26:00 AM 33.2546 139.5185 55° Northeast  Level Estimated
Sun 10:27:00 AM 33.3366 139.6604 55° Northeast  Level Estimated
Sun 10:28:00 AM 33.4185 139.8025 55° Northeast  Level Estimated
Sun 10:29:00 AM 33.5002 139.9449 55° Northeast  Level Estimated
Sun 10:30:00 AM 33.5817 140.0876 56° Northeast  Level Estimated
Sun 10:31:00 AM 33.6631 140.2305 56° Northeast  Level Estimated
Sun 10:32:00 AM 33.7444 140.3737 56° Northeast  Level Estimated
Sun 10:33:00 AM 33.8254 140.5172 56° Northeast  Level Estimated
Sun 10:34:00 AM 33.9063 140.6610 56° Northeast  Level Estimated
Sun 10:35:00 AM 33.9870 140.8050 56° Northeast  Level Estimated
Sun 10:36:00 AM 34.0676 140.9493 56° Northeast  Level Estimated
Sun 10:37:00 AM 34.1480 141.0939 56° Northeast  Level Estimated
Sun 10:38:00 AM 34.2282 141.2387 56° Northeast  Level Estimated
Sun 10:39:00 AM 34.3082 141.3838 56° Northeast  Level Estimated
Sun 10:40:00 AM 34.3881 141.5292 56° Northeast  Level Estimated
Sun 10:41:00 AM 34.4678 141.6749 56° Northeast  Level Estimated
Sun 10:42:00 AM 34.5473 141.8209 56° Northeast  Level Estimated
Sun 10:43:00 AM 34.6267 141.9671 57° Northeast  Level Estimated
Sun 10:44:00 AM 34.7059 142.1136 57° Northeast  Level Estimated
Sun 10:45:00 AM 34.7849 142.2604 57° Northeast  Level Estimated
Sun 10:46:00 AM 34.8637 142.4075 57° Northeast  Level Estimated
Sun 10:47:00 AM 34.9423 142.5549 57° Northeast  Level Estimated
Sun 10:48:00 AM 35.0208 142.7025 57° Northeast  Level Estimated
Sun 10:49:00 AM 35.0991 142.8504 57° Northeast  Level Estimated
Sun 10:50:00 AM 35.1772 142.9986 57° Northeast  Level Estimated
Sun 10:51:00 AM 35.2551 143.1471 57° Northeast  Level Estimated
Sun 10:52:00 AM 35.3329 143.2959 57° Northeast  Level Estimated
Sun 10:53:00 AM 35.4105 143.4449 57° Northeast  Level Estimated
Sun 10:54:00 AM 35.4878 143.5943 57° Northeast  Level Estimated
Sun 10:55:00 AM 35.5650 143.7439 58° Northeast  Level Estimated
Sun 10:56:00 AM 35.6421 143.8939 58° Northeast  Level Estimated
Sun 10:57:00 AM 35.7189 144.0441 58° Northeast  Level Estimated
Sun 10:58:00 AM 35.7955 144.1946 58° Northeast  Level Estimated
Sun 10:59:00 AM 35.8720 144.3454 58° Northeast  Level Estimated
Sun 11:00:00 AM 35.9482 144.4965 58° Northeast  Level Estimated
Sun 11:01:00 AM 36.0243 144.6479 58° Northeast  Level Estimated
Sun 11:02:00 AM 36.1002 144.7995 58° Northeast  Level Estimated
Sun 11:03:00 AM 36.1759 144.9515 58° Northeast  Level Estimated
Sun 11:04:00 AM 36.2514 145.1038 58° Northeast  Level Estimated
Sun 11:05:00 AM 36.3267 145.2563 58° Northeast  Level Estimated
Sun 11:06:00 AM 36.4018 145.4092 59° Northeast  Level Estimated
Sun 11:07:00 AM 36.4767 145.5623 59° Northeast  Level Estimated
Sun 11:08:00 AM 36.5514 145.7157 59° Northeast  Level Estimated
Sun 11:09:00 AM 36.6259 145.8695 59° Northeast  Level Estimated
Sun 11:10:00 AM 36.7003 146.0235 59° Northeast  Level Estimated
Sun 11:11:00 AM 36.7744 146.1778 59° Northeast  Level Estimated
Sun 11:12:00 AM 36.8483 146.3325 59° Northeast  Level Estimated
Sun 11:13:00 AM 36.9221 146.4874 59° Northeast  Level Estimated
Sun 11:14:00 AM 36.9956 146.6426 59° Northeast  Level Estimated
Sun 11:15:00 AM 37.0689 146.7982 59° Northeast  Level Estimated
Sun 11:16:00 AM 37.1420 146.9540 59° Northeast  Level Estimated
Sun 11:17:00 AM 37.2150 147.1101 60° Northeast  Level Estimated
Sun 11:18:00 AM 37.2877 147.2665 60° Northeast  Level Estimated
Sun 11:19:00 AM 37.3602 147.4233 60° Northeast  Level Estimated
Sun 11:20:00 AM 37.4325 147.5803 60° Northeast  Level Estimated
Sun 11:21:00 AM 37.5046 147.7376 60° Northeast  Level Estimated
Sun 11:22:00 AM 37.5764 147.8953 60° Northeast  Level Estimated
Sun 11:23:00 AM 37.6481 148.0532 60° Northeast  Level Estimated
Sun 11:24:00 AM 37.7196 148.2115 60° Northeast  Level Estimated
Sun 11:25:00 AM 37.7908 148.3700 60° Northeast  Level Estimated
Sun 11:26:00 AM 37.8618 148.5289 60° Northeast  Level Estimated
Sun 11:27:00 AM 37.9327 148.6880 61° Northeast  Level Estimated
Sun 11:28:00 AM 38.0033 148.8475 61° Northeast  Level Estimated
Sun 11:29:00 AM 38.0737 149.0073 61° Northeast  Level Estimated
Sun 11:30:00 AM 38.1438 149.1674 61° Northeast  Level Estimated
Sun 11:31:00 AM 38.2138 149.3278 61° Northeast  Level Estimated
Sun 11:32:00 AM 38.2835 149.4885 61° Northeast  Level Estimated
Sun 11:33:00 AM 38.3530 149.6495 61° Northeast  Level Estimated
Sun 11:34:00 AM 38.4223 149.8108 61° Northeast  Level Estimated
Sun 11:35:00 AM 38.4914 149.9724 61° Northeast  Level Estimated
Sun 11:36:00 AM 38.5602 150.1344 61° Northeast  Level Estimated
Sun 11:37:00 AM 38.6289 150.2966 62° Northeast  Level Estimated
Sun 11:38:00 AM 38.6973 150.4592 62° Northeast  Level Estimated
Sun 11:39:00 AM 38.7655 150.6221 62° Northeast  Level Estimated
Sun 11:40:00 AM 38.8334 150.7852 62° Northeast  Level Estimated
Sun 11:41:00 AM 38.9011 150.9487 62° Northeast  Level Estimated
Sun 11:42:00 AM 38.9686 151.1125 62° Northeast  Level Estimated
Sun 11:43:00 AM 39.0359 151.2767 62° Northeast  Level Estimated
Sun 11:44:00 AM 39.1029 151.4411 62° Northeast  Level Estimated
Sun 11:45:00 AM 39.1697 151.6058 62° Northeast  Level Estimated
Sun 11:46:00 AM 39.2363 151.7709 62° Northeast  Level Estimated
Sun 11:47:00 AM 39.3027 151.9362 63° Northeast  Level Estimated
Sun 11:48:00 AM 39.3688 152.1019 63° Northeast  Level Estimated
Sun 11:49:00 AM 39.4346 152.2679 63° Northeast  Level Estimated
Sun 11:50:00 AM 39.5003 152.4342 63° Northeast  Level Estimated
Sun 11:51:00 AM 39.5656 152.6008 63° Northeast  Level Estimated
Sun 11:52:00 AM 39.6308 152.7678 63° Northeast  Level Estimated
Sun 11:53:00 AM 39.6957 152.9350 63° Northeast  Level Estimated
Sun 11:54:00 AM 39.7604 153.1026 63° Northeast  Level Estimated
Sun 11:55:00 AM 39.8248 153.2705 63° Northeast  Level Estimated
Sun 11:56:00 AM 39.8890 153.4386 64° Northeast  Level Estimated
Sun 11:57:00 AM 39.9530 153.6072 64° Northeast  Level Estimated
Sun 11:58:00 AM 40.0167 153.7760 64° Northeast  Level Estimated
Sun 11:59:00 AM 40.0802 153.9451 64° Northeast  Level Estimated
Sun 12:00:00 PM 40.1434 154.1146 64° Northeast  Level Estimated
Sun 12:01:00 PM 40.2063 154.2843 64° Northeast  Level Estimated
Sun 12:02:00 PM 40.2691 154.4544 64° Northeast  Level Estimated
Sun 12:03:00 PM 40.3315 154.6248 64° Northeast  Level Estimated
Sun 12:04:00 PM 40.3937 154.7955 64° Northeast  Level Estimated
Sun 12:05:00 PM 40.4557 154.9666 64° Northeast  Level Estimated
Sun 12:06:00 PM 40.5174 155.1379 65° Northeast  Level Estimated
Sun 12:07:00 PM 40.5789 155.3096 65° Northeast  Level Estimated
Sun 12:08:00 PM 40.6401 155.4815 65° Northeast  Level Estimated
Sun 12:09:00 PM 40.7010 155.6538 65° Northeast  Level Estimated
Sun 12:10:00 PM 40.7617 155.8264 65° Northeast  Level Estimated
Sun 12:11:00 PM 40.8222 155.9993 65° Northeast  Level Estimated
Sun 12:12:00 PM 40.8824 156.1726 65° Northeast  Level Estimated
Sun 12:13:00 PM 40.9423 156.3461 65° Northeast  Level Estimated
Sun 12:14:00 PM 41.0019 156.5200 66° East  Level Estimated
Sun 12:15:00 PM 41.0613 156.6942 66° East  Level Estimated
Sun 12:16:00 PM 41.1204 156.8687 66° East  Level Estimated
Sun 12:17:00 PM 41.1793 157.0435 66° East  Level Estimated
Sun 12:18:00 PM 41.2379 157.2186 66° East  Level Estimated
Sun 12:19:00 PM 41.2963 157.3940 66° East  Level Estimated
Sun 12:20:00 PM 41.3543 157.5697 66° East  Level Estimated
Sun 12:21:00 PM 41.4121 157.7458 66° East  Level Estimated
Sun 12:22:00 PM 41.4697 157.9222 66° East  Level Estimated
Sun 12:23:00 PM 41.5269 158.0988 67° East  Level Estimated
Sun 12:24:00 PM 41.5839 158.2758 67° East  Level Estimated
Sun 12:25:00 PM 41.6406 158.4532 67° East  Level Estimated
Sun 12:26:00 PM 41.6971 158.6308 67° East  Level Estimated
Sun 12:27:00 PM 41.7533 158.8087 67° East  Level Estimated
Sun 12:28:00 PM 41.8092 158.9870 67° East  Level Estimated
Sun 12:29:00 PM 41.8648 159.1655 67° East  Level Estimated
Sun 12:30:00 PM 41.9201 159.3444 67° East  Level Estimated
Sun 12:31:00 PM 41.9752 159.5235 67° East  Level Estimated
Sun 12:31:00 PM 38.6333 165.0000 69° East 600 690 39,000  Level Oakland Oceanic (ODAPS)
Sun 12:32:00 PM 42.0300 159.7030 68° East  Level Estimated
Sun 12:33:00 PM 42.0845 159.8828 68° East  Level Estimated
Sun 12:34:00 PM 42.1387 160.0629 68° East  Level Estimated
Sun 12:35:00 PM 42.1927 160.2433 68° East  Level Estimated
Sun 12:36:00 PM 42.2463 160.4240 68° East  Level Estimated
Sun 12:37:00 PM 38.9949 166.2316 70° East 600 690 39,000  Level FlightAware Transoceanic
Sun 12:38:00 PM 39.0539 166.4380 70° East 600 690 39,000  Level FlightAware Transoceanic
Sun 12:39:00 PM 39.1125 166.6449 70° East 600 690 39,000  Level FlightAware Transoceanic
Sun 12:40:00 PM 39.1708 166.8520 70° East 600 690 39,000  Level FlightAware Transoceanic
Sun 12:41:00 PM 39.2287 167.0595 70° East 600 690 39,000  Level FlightAware Transoceanic
Sun 12:42:00 PM 39.2863 167.2674 70° East 600 690 39,000  Level FlightAware Transoceanic
Sun 12:43:00 PM 39.3434 167.4756 71° East 600 690 39,000  Level FlightAware Transoceanic
Sun 12:43:10 PM 39.3500 167.4667 71° East 596 686 39,000  Level Oakland Oceanic (ODAPS)
Sun 12:44:00 PM 39.4002 167.6841 71° East 600 690 39,000  Level FlightAware Transoceanic
Sun 12:45:00 PM 39.4566 167.8930 71° East 600 690 39,000  Level FlightAware Transoceanic
Sun 12:46:00 PM 39.5127 168.1022 71° East 600 690 39,000  Level FlightAware Transoceanic
Sun 12:47:00 PM 39.5683 168.3117 71° East 600 690 39,000  Level FlightAware Transoceanic
Sun 12:48:00 PM 39.6236 168.5216 71° East 600 690 39,000  Level FlightAware Transoceanic
Sun 12:49:00 PM 39.6819 168.7274 72° East 596 686 39,000  Level FlightAware Transoceanic
Sun 12:50:00 PM 39.7359 168.9387 72° East 596 686 39,000  Level FlightAware Transoceanic
Sun 12:51:00 PM 39.7895 169.1503 72° East 596 686 39,000  Level FlightAware Transoceanic
Sun 12:52:00 PM 39.8427 169.3622 72° East 596 686 39,000  Level FlightAware Transoceanic
Sun 12:53:00 PM 39.8955 169.5745 72° East 596 686 39,000  Level FlightAware Transoceanic
Sun 12:54:00 PM 39.9479 169.7871 72° East 596 686 39,000  Level FlightAware Transoceanic
Sun 12:55:00 PM 40.0000 170.0000 79° East 596 686 39,000  Level FlightAware Transoceanic
Sun 12:55:43 PM 40.0000 170.0000 79° East 563 648 39,000  Level Oakland Oceanic (ODAPS)
Sun 12:56:00 PM 40.0302 170.2093 79° East 596 686 39,000  Level FlightAware Transoceanic
Sun 12:57:00 PM 40.0600 170.4187 80° East 596 686 39,000  Level FlightAware Transoceanic
Sun 12:57:01 PM 40.0500 170.3167 80° East 587 676 39,000  Level Oakland Oceanic (ODAPS)
Sun 12:58:00 PM 40.0894 170.6284 80° East 596 686 39,000  Level FlightAware Transoceanic
Sun 12:59:00 PM 40.1184 170.8382 80° East 596 686 39,000  Level FlightAware Transoceanic
Sun 01:00:00 PM 40.1470 171.0482 80° East 596 686 39,000  Level FlightAware Transoceanic
Sun 01:01:00 PM 40.1753 171.2583 80° East 596 686 39,000  Level FlightAware Transoceanic
Sun 01:02:00 PM 40.1915 171.3803 80° East 563 648 39,000  Level FlightAware Transoceanic
Sun 01:03:00 PM 40.2231 171.5904 80° East 587 676 39,000  Level FlightAware Transoceanic
Sun 01:04:00 PM 40.2505 171.8033 80° East 587 676 39,000  Level FlightAware Transoceanic
Sun 01:05:00 PM 40.2776 172.0164 81° East 587 676 39,000  Level FlightAware Transoceanic
Sun 01:06:00 PM 40.3043 172.2296 81° East 587 676 39,000  Level FlightAware Transoceanic
Sun 01:07:00 PM 40.3306 172.4430 81° East 587 676 39,000  Level FlightAware Transoceanic
Sun 01:08:00 PM 40.3566 172.6566 81° East 587 676 39,000  Level FlightAware Transoceanic
Sun 01:09:00 PM 40.3821 172.8704 81° East 587 676 39,000  Level FlightAware Transoceanic
Sun 01:10:00 PM 40.4072 173.0843 81° East 587 676 39,000  Level FlightAware Transoceanic
Sun 01:10:53 PM 40.4333 173.3167 81° East 603 694 39,000  Level Oakland Oceanic (ODAPS)
Sun 01:11:00 PM 40.4319 173.2983 81° East 587 676 39,000  Level FlightAware Transoceanic
Sun 01:12:00 PM 40.4563 173.5125 82° East 587 676 39,000  Level FlightAware Transoceanic
Sun 01:13:00 PM 40.4802 173.7269 82° East 587 676 39,000  Level FlightAware Transoceanic
Sun 01:14:00 PM 40.5038 173.9414 82° East 587 676 39,000  Level FlightAware Transoceanic
Sun 01:15:00 PM 40.5269 174.1561 82° East 587 676 39,000  Level FlightAware Transoceanic
Sun 01:16:00 PM 40.5497 174.3709 82° East 587 676 39,000  Level FlightAware Transoceanic
Sun 01:17:00 PM 40.5774 174.6436 82° East 603 694 39,000  Level FlightAware Transoceanic
Sun 01:18:00 PM 40.5999 174.8654 82° East 603 694 39,000  Level FlightAware Transoceanic
Sun 01:19:00 PM 40.6221 175.0872 83° East 603 694 39,000  Level FlightAware Transoceanic
Sun 01:20:00 PM 40.6437 175.3092 83° East 603 694 39,000  Level FlightAware Transoceanic
Sun 01:21:00 PM 40.6650 175.5313 83° East 603 694 39,000  Level FlightAware Transoceanic
Sun 01:22:00 PM 40.6858 175.7536 83° East 603 694 39,000  Level FlightAware Transoceanic
Sun 01:23:00 PM 40.7062 175.9760 83° East 603 694 39,000  Level FlightAware Transoceanic
Sun 01:24:00 PM 40.7262 176.1986 83° East 603 694 39,000  Level FlightAware Transoceanic
Sun 01:24:45 PM 40.7333 176.3333 83° East 604 695 39,000  Level Oakland Oceanic (ODAPS)
Sun 01:25:00 PM 40.7458 176.4213 83° East 603 694 39,000  Level FlightAware Transoceanic
Sun 01:26:00 PM 40.7649 176.6441 84° East 603 694 39,000  Level FlightAware Transoceanic
Sun 01:27:00 PM 40.7836 176.8670 84° East 603 694 39,000  Level FlightAware Transoceanic
Sun 01:28:00 PM 40.8018 177.0901 84° East 603 694 39,000  Level FlightAware Transoceanic
Sun 01:29:00 PM 40.8197 177.3133 84° East 603 694 39,000  Level FlightAware Transoceanic
Sun 01:30:00 PM 40.8371 177.5366 84° East 603 694 39,000  Level FlightAware Transoceanic
Sun 01:31:00 PM 40.8469 177.7048 84° East 604 695 39,000  Level FlightAware Transoceanic
Sun 01:32:00 PM 40.8643 177.9338 84° East 604 695 39,000  Level FlightAware Transoceanic
Sun 01:33:00 PM 40.8812 178.1630 85° East 604 695 39,000  Level FlightAware Transoceanic
Sun 01:34:00 PM 40.8976 178.3922 85° East 604 695 39,000  Level FlightAware Transoceanic
Sun 01:35:00 PM 40.9136 178.6216 85° East 604 695 39,000  Level FlightAware Transoceanic
Sun 01:36:00 PM 40.9291 178.8511 85° East 604 695 39,000  Level FlightAware Transoceanic
Sun 01:37:00 PM 40.9442 179.0807 85° East 604 695 39,000  Level FlightAware Transoceanic
Sun 01:38:00 PM 40.9589 179.3103 85° East 604 695 39,000  Level FlightAware Transoceanic
Sun 01:38:37 PM 40.9667 179.3833 86° East 608 700 39,000  Level Oakland Oceanic (ODAPS)
Sun 01:39:00 PM 40.9730 179.5401 85° East 604 695 39,000  Level FlightAware Transoceanic
Sun 01:40:00 PM 40.9867 179.7700 86° East 604 695 39,000  Level FlightAware Transoceanic
Sun 01:41:00 PM 41.0000 -180.0000 79° East 604 695 39,000  Level FlightAware Transoceanic
Sun 01:41:27 PM 41.0000 180.0000 79° East 564 649 39,000  Level Oakland Oceanic (ODAPS)
Sun 01:42:00 PM 41.0302 -179.7909 79° East 604 695 39,000  Level FlightAware Transoceanic
Sun 01:43:00 PM 41.0600 -179.5815 79° East 604 695 39,000  Level FlightAware Transoceanic
Sun 01:44:00 PM 41.0895 -179.3720 80° East 604 695 39,000  Level FlightAware Transoceanic
Sun 01:45:00 PM 41.1185 -179.1623 80° East 608 700 39,000  Level FlightAware Transoceanic
Sun 01:46:00 PM 41.1472 -178.9524 80° East 608 700 39,000  Level FlightAware Transoceanic
Sun 01:47:00 PM 41.1686 -178.7938 80° East 564 649 39,000  Level FlightAware Transoceanic
Sun 01:48:00 PM 41.1955 -178.5921 80° East 564 649 39,000  Level FlightAware Transoceanic
Sun 01:49:00 PM 41.2220 -178.3904 80° East 564 649 39,000  Level FlightAware Transoceanic
Sun 01:50:00 PM 41.2482 -178.1884 80° East 564 649 39,000  Level FlightAware Transoceanic
Sun 01:51:00 PM 41.2740 -177.9863 80° East 564 649 39,000  Level FlightAware Transoceanic
Sun 01:52:00 PM 41.2995 -177.7840 81° East 564 649 39,000  Level FlightAware Transoceanic
Sun 01:52:30 PM 41.3333 -177.5500 81° East 560 644 39,000  Level Oakland Oceanic (ODAPS)
Sun 01:53:00 PM 41.3246 -177.5816 81° East 564 649 39,000  Level FlightAware Transoceanic
Sun 01:54:00 PM 41.3494 -177.3790 81° East 564 649 39,000  Level FlightAware Transoceanic
Sun 01:55:00 PM 41.3738 -177.1762 81° East 564 649 39,000  Level FlightAware Transoceanic
Sun 01:56:00 PM 41.3978 -176.9733 81° East 564 649 39,000  Level FlightAware Transoceanic
Sun 01:57:00 PM 41.4215 -176.7703 81° East 564 649 39,000  Level FlightAware Transoceanic
Sun 01:58:00 PM 41.4749 -176.3371 82° East 560 644 39,000  Level FlightAware Transoceanic
Sun 01:59:00 PM 41.4972 -176.1345 82° East 560 644 39,000  Level FlightAware Transoceanic
Sun 02:00:00 PM 41.5192 -175.9317 82° East 560 644 39,000  Level FlightAware Transoceanic
Sun 02:01:00 PM 41.5408 -175.7288 82° East 560 644 39,000  Level FlightAware Transoceanic
Sun 02:02:00 PM 41.5621 -175.5257 82° East 560 644 39,000  Level FlightAware Transoceanic
Sun 02:03:00 PM 41.5830 -175.3225 82° East 560 644 39,000  Level FlightAware Transoceanic
Sun 02:04:00 PM 41.6036 -175.1192 82° East 560 644 39,000  Level FlightAware Transoceanic
Sun 02:05:00 PM 41.6238 -174.9158 83° East 560 644 39,000  Level FlightAware Transoceanic
Sun 02:06:00 PM 41.6436 -174.7122 83° East 560 644 39,000  Level FlightAware Transoceanic
Sun 02:06:21 PM 41.6667 -174.5167 83° East 556 640 39,000  Level Oakland Oceanic (ODAPS)
Sun 02:07:00 PM 41.6631 -174.5085 83° East 560 644 39,000  Level FlightAware Transoceanic
Sun 02:08:00 PM 41.6822 -174.3047 83° East 560 644 39,000  Level FlightAware Transoceanic
Sun 02:09:00 PM 41.7010 -174.1007 83° East 560 644 39,000  Level FlightAware Transoceanic
Sun 02:10:00 PM 41.7194 -173.8967 83° East 560 644 39,000  Level FlightAware Transoceanic
Sun 02:11:00 PM 41.7374 -173.6925 83° East 560 644 39,000  Level FlightAware Transoceanic
Sun 02:12:00 PM 41.7751 -173.2897 84° East 556 640 39,000  Level FlightAware Transoceanic
Sun 02:13:00 PM 41.7919 -173.0848 84° East 556 640 39,000  Level FlightAware Transoceanic
Sun 02:14:00 PM 41.8083 -172.8798 84° East 556 640 39,000  Level FlightAware Transoceanic
Sun 02:15:00 PM 41.8244 -172.6747 84° East 556 640 39,000  Level FlightAware Transoceanic
Sun 02:16:00 PM 41.8401 -172.4695 84° East 556 640 39,000  Level FlightAware Transoceanic
Sun 02:17:00 PM 41.8555 -172.2642 84° East 556 640 39,000  Level FlightAware Transoceanic
Sun 02:18:00 PM 41.8704 -172.0588 84° East 556 640 39,000  Level FlightAware Transoceanic
Sun 02:19:00 PM 41.8850 -171.8533 85° East 556 640 39,000  Level FlightAware Transoceanic
Sun 02:20:00 PM 41.8993 -171.6477 85° East 556 640 39,000  Level FlightAware Transoceanic
Sun 02:20:13 PM 41.9000 -171.5167 84° East 569 655 39,000  Level Oakland Oceanic (ODAPS)
Sun 02:21:00 PM 41.9132 -171.4421 85° East 556 640 39,000  Level FlightAware Transoceanic
Sun 02:22:00 PM 41.9267 -171.2363 85° East 556 640 39,000  Level FlightAware Transoceanic
Sun 02:23:00 PM 41.9398 -171.0305 85° East 556 640 39,000  Level FlightAware Transoceanic
Sun 02:24:00 PM 41.9526 -170.8245 85° East 556 640 39,000  Level FlightAware Transoceanic
Sun 02:25:00 PM 41.9650 -170.6185 85° East 556 640 39,000  Level FlightAware Transoceanic
Sun 02:26:00 PM 41.9869 -170.2169 85° East 569 655 39,000  Level FlightAware Transoceanic
Sun 02:27:00 PM 42.0000 -170.0000 87° East 569 655 39,000  Level FlightAware Transoceanic
Sun 02:27:29 PM 42.0000 -170.0000 87° East 541 623 39,000  Level Oakland Oceanic (ODAPS)
Sun 02:28:00 PM 42.0085 -169.8004 87° East 569 655 39,000  Level FlightAware Transoceanic
Sun 02:29:00 PM 42.0167 -169.6008 87° East 569 655 39,000  Level FlightAware Transoceanic
Sun 02:30:00 PM 42.0245 -169.4011 87° East 569 655 39,000  Level FlightAware Transoceanic
Sun 02:31:00 PM 42.0320 -169.2014 87° East 569 655 39,000  Level FlightAware Transoceanic
Sun 02:32:00 PM 42.0391 -169.0016 87° East 569 655 39,000  Level FlightAware Transoceanic
Sun 02:33:00 PM 42.0459 -168.8018 87° East 569 655 39,000  Level FlightAware Transoceanic
Sun 02:34:00 PM 42.0523 -168.6020 88° East 541 623 39,000  Level FlightAware Transoceanic
Sun 02:34:04 PM 42.0500 -168.5667 88° East 540 621 39,000  Level Oakland Oceanic (ODAPS)
Sun 02:35:00 PM 42.0584 -168.4021 88° East 541 623 39,000  Level FlightAware Transoceanic
Sun 02:36:00 PM 42.0641 -168.2021 88° East 541 623 39,000  Level FlightAware Transoceanic
Sun 02:37:00 PM 42.0695 -168.0022 88° East 541 623 39,000  Level FlightAware Transoceanic
Sun 02:38:00 PM 42.0746 -167.8022 88° East 541 623 39,000  Level FlightAware Transoceanic
Sun 02:39:00 PM 42.0792 -167.6022 88° East 541 623 39,000  Level FlightAware Transoceanic
Sun 02:40:00 PM 42.0819 -167.3433 88° East 540 621 39,000  Level FlightAware Transoceanic
Sun 02:41:00 PM 42.0859 -167.1393 89° East 540 621 39,000  Level FlightAware Transoceanic
Sun 02:42:00 PM 42.0896 -166.9353 89° East 540 621 39,000  Level FlightAware Transoceanic
Sun 02:43:00 PM 42.0930 -166.7312 89° East 540 621 39,000  Level FlightAware Transoceanic
Sun 02:44:00 PM 42.0959 -166.5271 89° East 540 621 39,000  Level FlightAware Transoceanic
Sun 02:45:00 PM 42.0985 -166.3230 89° East 540 621 39,000  Level FlightAware Transoceanic
Sun 02:46:00 PM 42.1008 -166.1189 89° East 540 621 39,000  Level FlightAware Transoceanic
Sun 02:47:00 PM 42.1027 -165.9148 89° East 540 621 39,000  Level FlightAware Transoceanic
Sun 02:47:57 PM 42.1000 -165.6333 89° East 534 615 39,000  Level Oakland Oceanic (ODAPS)
Sun 02:48:00 PM 42.1042 -165.7107 89° East 540 621 39,000  Level FlightAware Transoceanic
Sun 02:49:00 PM 42.1054 -165.5065 90° East 540 621 39,000  Level FlightAware Transoceanic
Sun 02:50:00 PM 42.1062 -165.3024 90° East 540 621 39,000  Level FlightAware Transoceanic
Sun 02:51:00 PM 42.1066 -165.0982 90° East 540 621 39,000  Level FlightAware Transoceanic
Sun 02:52:00 PM 42.1067 -164.8941 90° East 540 621 39,000  Level FlightAware Transoceanic
Sun 02:53:00 PM 42.1064 -164.6899 90° East 540 621 39,000  Level FlightAware Transoceanic
Sun 02:54:00 PM 42.1018 -164.4251 90° East 534 615 39,000  Level FlightAware Transoceanic
Sun 02:55:00 PM 42.1008 -164.2237 90° East 534 615 39,000  Level FlightAware Transoceanic
Sun 02:56:00 PM 42.0996 -164.0224 91° East 534 615 39,000  Level FlightAware Transoceanic
Sun 02:57:00 PM 42.0979 -163.8210 91° East 534 615 39,000  Level FlightAware Transoceanic
Sun 02:58:00 PM 42.0959 -163.6197 91° East 534 615 39,000  Level FlightAware Transoceanic
Sun 02:59:00 PM 42.0936 -163.4183 91° East 534 615 39,000  Level FlightAware Transoceanic
Sun 03:00:00 PM 42.0909 -163.2170 91° East 534 615 39,000  Level FlightAware Transoceanic
Sun 03:01:00 PM 42.0878 -163.0157 91° East 534 615 39,000  Level FlightAware Transoceanic
Sun 03:01:49 PM 42.0833 -162.8500 91° East 515 593 39,000  Level Oakland Oceanic (ODAPS)
Sun 03:02:00 PM 42.0844 -162.8145 91° East 534 615 39,000  Level FlightAware Transoceanic
Sun 03:03:00 PM 42.0807 -162.6132 92° East 534 615 39,000  Level FlightAware Transoceanic
Sun 03:04:00 PM 42.0766 -162.4120 92° East 534 615 39,000  Level FlightAware Transoceanic
Sun 03:05:00 PM 42.0721 -162.2108 92° East 534 615 39,000  Level FlightAware Transoceanic
Sun 03:06:00 PM 42.0673 -162.0096 92° East 534 615 39,000  Level FlightAware Transoceanic
Sun 03:07:00 PM 42.0622 -161.8085 92° East 534 615 39,000  Level FlightAware Transoceanic
Sun 03:08:00 PM 42.0563 -161.6277 92° East 515 593 39,000  Level FlightAware Transoceanic
Sun 03:09:00 PM 42.0505 -161.4241 92° East 515 593 39,000  Level FlightAware Transoceanic
Sun 03:10:00 PM 42.0443 -161.2205 92° East 515 593 39,000  Level FlightAware Transoceanic
Sun 03:11:00 PM 42.0378 -161.0170 93° East 515 593 39,000  Level FlightAware Transoceanic
Sun 03:12:00 PM 42.0310 -160.8135 93° East 515 593 39,000  Level FlightAware Transoceanic
Sun 03:13:00 PM 42.0238 -160.6100 93° East 515 593 39,000  Level FlightAware Transoceanic
Sun 03:14:00 PM 42.0162 -160.4066 93° East 515 593 39,000  Level FlightAware Transoceanic
Sun 03:15:00 PM 42.0083 -160.2033 93° East 515 593 39,000  Level FlightAware Transoceanic
Sun 03:15:41 PM 42.0000 -160.1833 90° East 443 510 39,000  Level Oakland Oceanic (ODAPS)
Sun 03:16:00 PM 42.0000 -160.0000 87° East 515 593 39,000  Level FlightAware Transoceanic
Sun 03:16:48 PM 42.0000 -159.9833 87° East 497 572 39,000  Level Oakland Oceanic (ODAPS)
Sun 03:17:00 PM 42.0079 -159.8152 87° East 515 593 39,000  Level FlightAware Transoceanic
Sun 03:18:00 PM 42.0155 -159.6304 87° East 515 593 39,000  Level FlightAware Transoceanic
Sun 03:19:00 PM 42.0228 -159.4455 87° East 515 593 39,000  Level FlightAware Transoceanic
Sun 03:20:00 PM 42.0298 -159.2606 87° East 515 593 39,000  Level FlightAware Transoceanic
Sun 03:21:00 PM 42.0365 -159.0756 87° East 515 593 39,000  Level FlightAware Transoceanic
Sun 03:22:00 PM 42.0365 -159.0756 87° East 443 510 39,000  Level FlightAware Transoceanic
Sun 03:23:00 PM 42.0434 -158.8549 87° East 497 572 39,000  Level FlightAware Transoceanic
Sun 03:24:00 PM 42.0496 -158.6667 88° East 497 572 39,000  Level FlightAware Transoceanic
Sun 03:25:00 PM 42.0555 -158.4785 88° East 497 572 39,000  Level FlightAware Transoceanic
Sun 03:26:00 PM 42.0610 -158.2902 88° East 497 572 39,000  Level FlightAware Transoceanic
Sun 03:27:00 PM 42.0663 -158.1019 88° East 497 572 39,000  Level FlightAware Transoceanic
Sun 03:28:00 PM 42.0712 -157.9135 88° East 497 572 39,000  Level FlightAware Transoceanic
Sun 03:29:00 PM 42.0758 -157.7251 88° East 497 572 39,000  Level FlightAware Transoceanic
Sun 03:29:33 PM 42.0833 -157.6000 88° East 493 567 39,000  Level Oakland Oceanic (ODAPS)
Sun 03:30:00 PM 42.0802 -157.5367 88° East 497 572 39,000  Level FlightAware Transoceanic
Sun 03:31:00 PM 42.0842 -157.3483 88° East 497 572 39,000  Level FlightAware Transoceanic
Sun 03:32:00 PM 42.0879 -157.1599 89° East 497 572 39,000  Level FlightAware Transoceanic
Sun 03:33:00 PM 42.0913 -156.9714 89° East 497 572 39,000  Level FlightAware Transoceanic
Sun 03:34:00 PM 42.0943 -156.7829 89° East 497 572 39,000  Level FlightAware Transoceanic
Sun 03:35:00 PM 42.0971 -156.5944 89° East 497 572 39,000  Level FlightAware Transoceanic
Sun 03:36:00 PM 42.1043 -156.3329 89° East 493 567 39,000  Level FlightAware Transoceanic
Sun 03:37:00 PM 42.1062 -156.1518 89° East 493 567 39,000  Level FlightAware Transoceanic
Sun 03:38:00 PM 42.1077 -155.9707 89° East 493 567 39,000  Level FlightAware Transoceanic
Sun 03:39:00 PM 42.1090 -155.7896 90° East 493 567 39,000  Level FlightAware Transoceanic
Sun 03:40:00 PM 42.1100 -155.6085 90° East 493 567 39,000  Level FlightAware Transoceanic
Sun 03:41:00 PM 42.1107 -155.4274 90° East 493 567 39,000  Level FlightAware Transoceanic
Sun 03:42:00 PM 42.1112 -155.2463 90° East 493 567 39,000  Level FlightAware Transoceanic
Sun 03:43:00 PM 42.1113 -155.0652 90° East 493 567 39,000  Level FlightAware Transoceanic
Sun 03:43:24 PM 42.1167 -155.0500 90° East 488 562 39,000  Level Oakland Oceanic (ODAPS)
Sun 03:44:00 PM 42.1112 -154.8841 90° East 493 567 39,000  Level FlightAware Transoceanic
Sun 03:45:00 PM 42.1108 -154.7030 90° East 493 567 39,000  Level FlightAware Transoceanic
Sun 03:46:00 PM 42.1101 -154.5219 90° East 493 567 39,000  Level FlightAware Transoceanic
Sun 03:47:00 PM 42.1091 -154.3408 90° East 493 567 39,000  Level FlightAware Transoceanic
Sun 03:48:00 PM 42.1078 -154.1597 91° East 493 567 39,000  Level FlightAware Transoceanic
Sun 03:49:00 PM 42.1103 -153.9666 91° East 488 562 39,000  Level FlightAware Transoceanic
Sun 03:50:00 PM 42.1083 -153.7860 91° East 488 562 39,000  Level FlightAware Transoceanic
Sun 03:51:00 PM 42.1059 -153.6055 91° East 488 562 39,000  Level FlightAware Transoceanic
Sun 03:52:00 PM 42.1033 -153.4250 91° East 488 562 39,000  Level FlightAware Transoceanic
Sun 03:53:00 PM 42.1004 -153.2445 91° East 488 562 39,000  Level FlightAware Transoceanic
Sun 03:54:00 PM 42.0973 -153.0640 91° East 488 562 39,000  Level FlightAware Transoceanic
Sun 03:55:00 PM 42.0938 -152.8835 92° East 488 562 39,000  Level FlightAware Transoceanic
Sun 03:56:00 PM 42.0900 -152.7031 92° East 488 562 39,000  Level FlightAware Transoceanic
Sun 03:57:00 PM 42.0860 -152.5227 92° East 488 562 39,000 779 Level FlightAware Transoceanic
Sun 03:57:17 PM 42.0833 -152.5500 92° East 479 551 40,000  Climbing Oakland Oceanic (ODAPS)
Sun 03:58:00 PM 42.0817 -152.3423 92° East 488 562 39,000 -583 Descending FlightAware Transoceanic
Sun 03:59:00 PM 42.0771 -152.1619 92° East 488 562 39,000  Level FlightAware Transoceanic
Sun 04:00:00 PM 42.0722 -151.9816 92° East 488 562 39,000  Level FlightAware Transoceanic
Sun 04:01:00 PM 42.0671 -151.8013 92° East 488 562 39,000  Level FlightAware Transoceanic
Sun 04:02:00 PM 42.0616 -151.6210 92° East 488 562 39,000 500 Level FlightAware Transoceanic
Sun 04:03:00 PM 42.0545 -151.4563 92° East 479 551 40,000 500 Climbing FlightAware Transoceanic
Sun 04:04:00 PM 42.0487 -151.2742 93° East 479 551 40,000  Level FlightAware Transoceanic
Sun 04:05:00 PM 42.0426 -151.0920 93° East 479 551 40,000  Level FlightAware Transoceanic
Sun 04:06:00 PM 42.0362 -150.9099 93° East 479 551 40,000  Level FlightAware Transoceanic
Sun 04:07:00 PM 42.0296 -150.7279 93° East 479 551 40,000  Level FlightAware Transoceanic
Sun 04:08:00 PM 42.0226 -150.5458 93° East 479 551 40,000  Level FlightAware Transoceanic
Sun 04:09:00 PM 42.0154 -150.3638 93° East 479 551 40,000  Level FlightAware Transoceanic
Sun 04:10:00 PM 42.0078 -150.1819 93° East 479 551 40,000  Level FlightAware Transoceanic
Sun 04:11:00 PM 42.0000 -150.0000 94° East 479 551 40,000  Level FlightAware Transoceanic
Sun 04:11:09 PM 42.0000 -150.0833 90° East 410 472 40,000  Level Oakland Oceanic (ODAPS)
Sun 04:11:40 PM 42.0000 -150.0000 94° East 463 533 40,000  Level Oakland Oceanic (ODAPS)
Sun 04:12:00 PM 41.9903 -149.8283 94° East 479 551 40,000  Level FlightAware Transoceanic
Sun 04:13:00 PM 41.9804 -149.6566 94° East 479 551 40,000  Level FlightAware Transoceanic
Sun 04:14:00 PM 41.9703 -149.4850 95° East 479 551 40,000  Level FlightAware Transoceanic
Sun 04:15:00 PM 41.9599 -149.3134 95° East 479 551 40,000  Level FlightAware Transoceanic
Sun 04:16:00 PM 41.9492 -149.1419 95° East 479 551 40,000  Level FlightAware Transoceanic
Sun 04:17:00 PM 41.9482 -149.1271 95° East 410 472 40,000  Level FlightAware Transoceanic
Sun 04:18:00 PM 41.9371 -148.9527 95° East 463 533 40,000  Level FlightAware Transoceanic
Sun 04:19:00 PM 41.9257 -148.7784 95° East 463 533 40,000  Level FlightAware Transoceanic
Sun 04:20:00 PM 41.9140 -148.6041 95° East 463 533 40,000  Level FlightAware Transoceanic
Sun 04:21:00 PM 41.9021 -148.4299 95° East 463 533 40,000  Level FlightAware Transoceanic
Sun 04:22:00 PM 41.8899 -148.2558 95° East 463 533 40,000  Level FlightAware Transoceanic
Sun 04:23:00 PM 41.8774 -148.0817 96° East 463 533 40,000  Level FlightAware Transoceanic
Sun 04:24:00 PM 41.8647 -147.9077 96° East 463 533 40,000  Level FlightAware Transoceanic
Sun 04:25:00 PM 41.8517 -147.7337 96° East 463 533 40,000  Level FlightAware Transoceanic
Sun 04:25:01 PM 41.8500 -147.6667 96° East 460 529 40,000  Level Oakland Oceanic (ODAPS)
Sun 04:26:00 PM 41.8385 -147.5598 96° East 463 533 40,000  Level FlightAware Transoceanic
Sun 04:27:00 PM 41.8250 -147.3861 96° East 463 533 40,000  Level FlightAware Transoceanic
Sun 04:28:00 PM 41.8112 -147.2123 96° East 463 533 40,000  Level FlightAware Transoceanic
Sun 04:29:00 PM 41.7971 -147.0387 96° East 463 533 40,000  Level FlightAware Transoceanic
Sun 04:30:00 PM 41.7828 -146.8651 96° East 463 533 40,000  Level FlightAware Transoceanic
Sun 04:31:00 PM 41.7663 -146.6336 97° East 460 529 40,000  Level FlightAware Transoceanic
Sun 04:32:00 PM 41.7514 -146.4617 97° East 460 529 40,000  Level FlightAware Transoceanic
Sun 04:33:00 PM 41.7363 -146.2899 97° East 460 529 40,000  Level FlightAware Transoceanic
Sun 04:34:00 PM 41.7210 -146.1181 97° East 460 529 40,000  Level FlightAware Transoceanic
Sun 04:35:00 PM 41.7053 -145.9465 97° East 460 529 40,000  Level FlightAware Transoceanic
Sun 04:36:00 PM 41.6895 -145.7749 97° East 460 529 40,000  Level FlightAware Transoceanic
Sun 04:37:00 PM 41.6734 -145.6034 97° East 460 529 40,000  Level FlightAware Transoceanic
Sun 04:38:00 PM 41.6570 -145.4320 97° East 460 529 40,000  Level FlightAware Transoceanic
Sun 04:38:52 PM 41.6333 -145.2833 97° East 455 524 40,000  Level Oakland Oceanic (ODAPS)
Sun 04:39:00 PM 41.6403 -145.2607 97° East 460 529 40,000  Level FlightAware Transoceanic
Sun 04:40:00 PM 41.6234 -145.0895 98° East 460 529 40,000  Level FlightAware Transoceanic
Sun 04:41:00 PM 41.6063 -144.9183 98° East 460 529 40,000  Level FlightAware Transoceanic
Sun 04:42:00 PM 41.5889 -144.7473 98° East 460 529 40,000  Level FlightAware Transoceanic
Sun 04:43:00 PM 41.5712 -144.5763 98° East 460 529 40,000  Level FlightAware Transoceanic
Sun 04:44:00 PM 41.5533 -144.4055 98° East 460 529 40,000  Level FlightAware Transoceanic
Sun 04:45:00 PM 41.5331 -144.2852 98° East 455 524 40,000  Level FlightAware Transoceanic
Sun 04:46:00 PM 41.5155 -144.1191 98° East 455 524 40,000  Level FlightAware Transoceanic
Sun 04:47:00 PM 41.4977 -143.9531 98° East 455 524 40,000  Level FlightAware Transoceanic
Sun 04:48:00 PM 41.4797 -143.7873 98° East 455 524 40,000  Level FlightAware Transoceanic
Sun 04:49:00 PM 41.4614 -143.6215 98° East 455 524 40,000  Level FlightAware Transoceanic
Sun 04:50:00 PM 41.4429 -143.4558 99° East 455 524 40,000  Level FlightAware Transoceanic
Sun 04:51:00 PM 41.4242 -143.2902 99° East 455 524 40,000  Level FlightAware Transoceanic
Sun 04:52:00 PM 41.4052 -143.1247 99° East 455 524 40,000  Level FlightAware Transoceanic
Sun 04:52:45 PM 41.3833 -142.9667 99° East 455 524 40,000  Level Oakland Oceanic (ODAPS)
Sun 04:53:00 PM 41.3860 -142.9593 99° East 455 524 40,000  Level FlightAware Transoceanic
Sun 04:54:00 PM 41.3666 -142.7940 99° East 455 524 40,000  Level FlightAware Transoceanic
Sun 04:55:00 PM 41.3469 -142.6288 99° East 455 524 40,000  Level FlightAware Transoceanic
Sun 04:56:00 PM 41.3270 -142.4637 99° East 455 524 40,000  Level FlightAware Transoceanic
Sun 04:57:00 PM 41.3068 -142.2987 99° East 455 524 40,000  Level FlightAware Transoceanic
Sun 04:58:00 PM 41.2864 -142.1338 99° East 455 524 40,000  Level FlightAware Transoceanic
Sun 04:59:00 PM 41.2640 -141.9740 99° East 455 524 40,000  Level FlightAware Transoceanic
Sun 05:00:00 PM 41.2433 -141.8089 100° East 455 524 40,000  Level FlightAware Transoceanic
Sun 05:01:00 PM 41.2224 -141.6439 100° East 455 524 40,000  Level FlightAware Transoceanic
Sun 05:02:00 PM 41.2012 -141.4790 100° East 455 524 40,000  Level FlightAware Transoceanic
Sun 05:03:00 PM 41.1798 -141.3142 100° East 455 524 40,000  Level FlightAware Transoceanic
Sun 05:04:00 PM 41.1581 -141.1496 100° East 455 524 40,000  Level FlightAware Transoceanic
Sun 05:05:00 PM 41.1362 -140.9850 100° East 455 524 40,000  Level FlightAware Transoceanic
Sun 05:06:00 PM 41.1141 -140.8205 100° East 455 524 40,000  Level FlightAware Transoceanic
Sun 05:06:37 PM 41.1000 -140.7167 100° East 421 484 40,000  Level Oakland Oceanic (ODAPS)
Sun 05:07:00 PM 41.0918 -140.6562 100° East 455 524 40,000  Level FlightAware Transoceanic
Sun 05:08:00 PM 41.0692 -140.4920 100° East 455 524 40,000  Level FlightAware Transoceanic
Sun 05:09:00 PM 41.0463 -140.3279 101° East 455 524 40,000  Level FlightAware Transoceanic
Sun 05:10:00 PM 41.0233 -140.1639 101° East 455 524 40,000  Level FlightAware Transoceanic
Sun 05:11:00 PM 41.0000 -140.0000 108° East 455 524 40,000  Level FlightAware Transoceanic
Sun 05:11:14 PM 41.0000 -140.0000 108° East 447 514 40,000  Level Oakland Oceanic (ODAPS)
Sun 05:12:00 PM 40.9593 -139.8346 108° East 455 524 40,000  Level FlightAware Transoceanic
Sun 05:13:00 PM 40.9196 -139.6746 108° East 421 484 40,000  Level FlightAware Transoceanic
Sun 05:14:00 PM 40.8791 -139.5122 108° East 421 484 40,000  Level FlightAware Transoceanic
Sun 05:15:00 PM 40.8383 -139.3501 108° East 421 484 40,000  Level FlightAware Transoceanic
Sun 05:16:00 PM 40.7973 -139.1881 109° East 421 484 40,000  Level FlightAware Transoceanic
Sun 05:17:00 PM 40.7672 -139.0697 109° East 447 514 40,000  Level FlightAware Transoceanic
Sun 05:18:00 PM 40.7277 -138.9153 109° East 447 514 40,000  Level FlightAware Transoceanic
Sun 05:19:00 PM 40.6880 -138.7611 109° East 447 514 40,000  Level FlightAware Transoceanic
Sun 05:20:00 PM 40.6480 -138.6071 109° East 447 514 40,000  Level FlightAware Transoceanic
Sun 05:20:37 PM 40.6500 -138.6000 109° East 456 525 40,000  Level Oakland Oceanic (ODAPS)
Sun 05:21:00 PM 40.6079 -138.4532 109° East 447 514 40,000  Level FlightAware Transoceanic
Sun 05:22:00 PM 40.5676 -138.2995 109° East 447 514 40,000  Level FlightAware Transoceanic
Sun 05:23:00 PM 40.5270 -138.1461 109° East 447 514 40,000  Level FlightAware Transoceanic
Sun 05:24:00 PM 40.4863 -137.9928 109° East 447 514 40,000  Level FlightAware Transoceanic
Sun 05:25:00 PM 40.4453 -137.8396 109° East 447 514 40,000  Level FlightAware Transoceanic
Sun 05:26:00 PM 40.4015 -137.6643 110° East 456 525 40,000  Level FlightAware Transoceanic
Sun 05:27:00 PM 40.3594 -137.5090 110° East 456 525 40,000  Level FlightAware Transoceanic
Sun 05:28:00 PM 40.3171 -137.3540 110° East 456 525 40,000  Level FlightAware Transoceanic
Sun 05:29:00 PM 40.2745 -137.1991 110° East 456 525 40,000  Level FlightAware Transoceanic
Sun 05:30:00 PM 40.2317 -137.0444 110° East 456 525 40,000  Level FlightAware Transoceanic
Sun 05:31:00 PM 40.1888 -136.8899 110° East 456 525 40,000  Level FlightAware Transoceanic
Sun 05:32:00 PM 40.1456 -136.7356 110° East 456 525 40,000  Level FlightAware Transoceanic
Sun 05:33:00 PM 40.1022 -136.5815 110° East 456 525 40,000  Level FlightAware Transoceanic
Sun 05:34:00 PM 40.0586 -136.4276 110° East 456 525 40,000  Level FlightAware Transoceanic
Sun 05:34:21 PM 40.0833 -136.5167 110° East 458 527 40,000  Level Oakland Oceanic (ODAPS)
Sun 05:35:00 PM 40.0149 -136.2739 110° East 456 525 40,000  Level FlightAware Transoceanic
Sun 05:36:00 PM 39.9709 -136.1204 111° Southeast 456 525 40,000  Level FlightAware Transoceanic
Sun 05:37:00 PM 39.9267 -135.9671 111° Southeast 456 525 40,000  Level FlightAware Transoceanic
Sun 05:38:00 PM 39.8823 -135.8140 111° Southeast 456 525 40,000  Level FlightAware Transoceanic
Sun 05:39:00 PM 39.8377 -135.6611 111° Southeast 456 525 40,000  Level FlightAware Transoceanic
Sun 05:40:00 PM 39.8148 -135.5844 111° Southeast 458 527 40,000  Level FlightAware Transoceanic
Sun 05:41:00 PM 39.7693 -135.4297 111° Southeast 458 527 40,000  Level FlightAware Transoceanic
Sun 05:42:00 PM 39.7236 -135.2753 111° Southeast 458 527 40,000  Level FlightAware Transoceanic
Sun 05:43:00 PM 39.6777 -135.1210 111° Southeast 458 527 40,000  Level FlightAware Transoceanic
Sun 05:44:00 PM 39.6316 -134.9670 111° Southeast 458 527 40,000  Level FlightAware Transoceanic
Sun 05:45:00 PM 39.5853 -134.8131 111° Southeast 458 527 40,000  Level FlightAware Transoceanic
Sun 05:46:00 PM 39.5388 -134.6595 111° Southeast 458 527 40,000  Level FlightAware Transoceanic
Sun 05:47:00 PM 39.4921 -134.5060 112° Southeast 458 527 40,000  Level FlightAware Transoceanic
Sun 05:48:00 PM 39.4452 -134.3528 112° Southeast 458 527 40,000  Level FlightAware Transoceanic
Sun 05:48:13 PM 39.4833 -134.5000 111° Southeast 453 521 40,000  Level Oakland Oceanic (ODAPS)
Sun 05:49:00 PM 39.3981 -134.1998 112° Southeast 458 527 40,000  Level FlightAware Transoceanic
Sun 05:50:00 PM 39.3508 -134.0470 112° Southeast 458 527 40,000  Level FlightAware Transoceanic
Sun 05:51:00 PM 39.3032 -133.8944 112° Southeast 458 527 40,000  Level FlightAware Transoceanic
Sun 05:52:00 PM 39.2556 -133.7420 112° Southeast 458 527 40,000  Level FlightAware Transoceanic
Sun 05:53:00 PM 39.2076 -133.5898 112° Southeast 458 527 40,000  Level FlightAware Transoceanic
Sun 05:54:00 PM 39.2006 -133.5851 112° Southeast 453 521 40,000  Level FlightAware Transoceanic
Sun 05:55:00 PM 39.1528 -133.4333 112° Southeast 453 521 40,000  Level FlightAware Transoceanic
Sun 05:56:00 PM 39.1048 -133.2817 112° Southeast 453 521 40,000  Level FlightAware Transoceanic
Sun 05:57:00 PM 39.0566 -133.1304 112° Southeast 453 521 40,000  Level FlightAware Transoceanic
Sun 05:58:00 PM 39.0082 -132.9792 112° Southeast 453 521 40,000  Level FlightAware Transoceanic
Sun 05:59:00 PM 38.9596 -132.8283 113° Southeast 453 521 40,000  Level FlightAware Transoceanic
Sun 06:00:00 PM 38.9108 -132.6776 113° Southeast 453 521 40,000  Level FlightAware Transoceanic
Sun 06:01:00 PM 38.8618 -132.5271 113° Southeast 453 521 40,000  Level FlightAware Transoceanic
Sun 06:02:00 PM 38.8126 -132.3767 113° Southeast 453 521 40,000  Level FlightAware Transoceanic
Sun 06:02:04 PM 38.8500 -132.4833 113° Southeast 458 527 40,000  Level Oakland Oceanic (ODAPS)
Sun 06:03:00 PM 38.7632 -132.2266 113° Southeast 453 521 40,000  Level FlightAware Transoceanic
Sun 06:04:00 PM 38.7137 -132.0767 113° Southeast 453 521 40,000  Level FlightAware Transoceanic
Sun 06:05:00 PM 38.6639 -131.9270 113° Southeast 453 521 40,000  Level FlightAware Transoceanic
Sun 06:06:00 PM 38.6140 -131.7775 113° Southeast 453 521 40,000  Level FlightAware Transoceanic
Sun 06:07:00 PM 38.5638 -131.6283 113° Southeast 453 521 40,000  Level FlightAware Transoceanic
Sun 06:08:00 PM 38.5560 -131.6002 113° Southeast 458 527 40,000  Level FlightAware Transoceanic
Sun 06:09:00 PM 38.5064 -131.4537 113° Southeast 458 527 40,000  Level FlightAware Transoceanic
Sun 06:10:00 PM 38.4565 -131.3074 114° Southeast 458 527 40,000  Level FlightAware Transoceanic
Sun 06:11:00 PM 38.4065 -131.1613 114° Southeast 458 527 40,000  Level FlightAware Transoceanic
Sun 06:12:00 PM 38.3563 -131.0155 114° Southeast 458 527 40,000  Level FlightAware Transoceanic
Sun 06:13:00 PM 38.3060 -130.8698 114° Southeast 458 527 40,000  Level FlightAware Transoceanic
Sun 06:14:00 PM 38.2554 -130.7243 114° Southeast 458 527 40,000  Level FlightAware Transoceanic
Sun 06:15:00 PM 38.2047 -130.5791 114° Southeast 458 527 40,000  Level FlightAware Transoceanic
Sun 06:15:57 PM 38.1333 -130.3667 115° Southeast 479 551 40,000  Level Oakland Oceanic (ODAPS)
Sun 06:16:00 PM 38.1538 -130.4340 114° Southeast 458 527 40,000  Level FlightAware Transoceanic
Sun 06:17:00 PM 38.1027 -130.2891 114° Southeast 458 527 40,000  Level FlightAware Transoceanic
Sun 06:18:00 PM 38.0514 -130.1445 114° Southeast 458 527 40,000  Level FlightAware Transoceanic
Sun 06:18:21 PM 38.0000 -130.0000 101° East 474 545 40,000  Level Oakland Oceanic (ODAPS)
Sun 06:19:00 PM 38.0000 -130.0000 101° East 458 527 40,000  Level FlightAware Transoceanic
Sun 06:20:00 PM 37.9742 -129.8323 101° East 458 527 40,000  Level FlightAware Transoceanic
Sun 06:21:00 PM 37.9482 -129.6647 101° East 458 527 40,000  Level FlightAware Transoceanic
Sun 06:22:00 PM 37.9011 -129.3651 101° East 479 551 40,000  Level FlightAware Transoceanic
Sun 06:23:00 PM 37.8758 -129.2066 101° East 479 551 40,000  Level FlightAware Transoceanic
Sun 06:24:00 PM 37.8503 -129.0483 102° East 474 545 40,000  Level FlightAware Transoceanic
Sun 06:25:00 PM 37.8246 -128.8900 102° East 474 545 40,000  Level FlightAware Transoceanic
Sun 06:26:00 PM 37.7988 -128.7319 102° East 474 545 40,000  Level FlightAware Transoceanic
Sun 06:27:00 PM 37.7726 -128.5739 102° East 474 545 40,000  Level FlightAware Transoceanic
Sun 06:28:00 PM 37.7463 -128.4160 102° East 474 545 40,000  Level FlightAware Transoceanic
Sun 06:29:00 PM 37.7198 -128.2582 102° East 474 545 40,000  Level FlightAware Transoceanic
Sun 06:29:48 PM 37.7000 -128.1000 103° East 486 559 40,000  Level Oakland Oceanic (ODAPS)
Sun 06:30:00 PM 37.6931 -128.1005 102° East 474 545 40,000  Level FlightAware Transoceanic
Sun 06:31:00 PM 37.6661 -127.9430 102° East 474 545 40,000  Level FlightAware Transoceanic
Sun 06:32:00 PM 37.6389 -127.7855 102° East 474 545 40,000  Level FlightAware Transoceanic
Sun 06:33:00 PM 37.6116 -127.6282 102° East 474 545 40,000  Level FlightAware Transoceanic
Sun 06:33:29 PM 37.5953 -127.4956 93° East 495 570 40,000  Level Oakland Center
Sun 06:34:00 PM 37.5840 -127.4709 103° East 474 545 40,000  Level FlightAware Transoceanic
Sun 06:34:30 PM 37.5667 -127.3278 102° East 494 568 40,000  Level Oakland Center
Sun 06:35:00 PM 37.5562 -127.3139 103° East 474 545 40,000  Level FlightAware Transoceanic
Sun 06:36:00 PM 37.5000 -127.0000 93° East 486 559 40,000  Level FlightAware Transoceanic
Sun 06:36:00 PM 37.4790 -127.0795 114° Southeast  Level Estimated
Sun 06:37:00 PM 37.4928 -126.8342 93° East 486 559 40,000  Level FlightAware Transoceanic
Sun 06:37:35 PM 37.4697 -126.7956 114° Southeast 485 558 40,000  Level Oakland Center
Sun 06:38:00 PM 37.4853 -126.6684 93° East 486 559 40,000  Level FlightAware Transoceanic
Sun 06:38:36 PM 37.4303 -126.6342 107° East 483 556 40,000  Level Oakland Center
Sun 06:39:00 PM 37.4776 -126.5026 93° East 486 559 40,000  Level FlightAware Transoceanic
Sun 06:39:37 PM 37.3925 -126.4728 106° East 484 557 40,000  Level Oakland Center
Sun 06:40:39 PM 37.3550 -126.3119 106° East 482 555 40,000  Level Oakland Center
Sun 06:41:40 PM 37.3153 -126.1503 107° East 485 558 40,000  Level Oakland Center
Sun 06:42:41 PM 37.2775 -125.9911 107° East 480 552 40,000  Level Oakland Center
Sun 06:43:00 PM 37.0629 -125.9288 114° Southeast  Level Estimated
Sun 06:43:43 PM 37.2392 -125.8325 107° East 478 550 40,000  Level Oakland Center
Sun 06:44:44 PM 37.2011 -125.6742 107° East 476 548 39,700 -390 Descending Oakland Center
Sun 06:45:46 PM 37.1639 -125.5208 107° East 468 539 39,200 -585 Descending Oakland Center
Sun 06:46:47 PM 37.1186 -125.3353 107° East 465 535 38,500 -623 Descending Oakland Center
Sun 06:48:00 PM 37.0574 -125.1297 107° East  Level FlightAware Approximate
Sun 06:48:49 PM 37.0400 -125.0231 107° East 472 543 37,300  Level Oakland Center
Sun 06:49:51 PM 37.0003 -124.8631 107° East 481 554 37,000 -146 Descending Oakland Center
Sun 06:50:52 PM 36.9594 -124.7033 108° East 484 557 37,000  Level Oakland Center
Sun 06:51:53 PM 36.9189 -124.5431 108° East 485 558 37,000  Level Oakland Center
Sun 06:52:55 PM 36.8775 -124.3803 108° East 491 565 37,000  Level Oakland Center
Sun 06:53:56 PM 36.8347 -124.2169 108° East 496 571 37,000  Level Oakland Center
Sun 06:54:58 PM 36.7822 -124.0200 108° East 501 577 37,000  Level Oakland Center
Sun 07:01:17 PM 36.5140 -123.0060 108° East 492 566 37,000  Level FlightAware ADS-B
Sun 07:01:57 PM 36.4840 -122.8950 109° East 494 568 37,000  Level FlightAware ADS-B
Sun 07:02:47 PM 36.4490 -122.7670 109° East 493 567 37,000  Level FlightAware ADS-B
Sun 07:03:37 PM 36.4110 -122.6280 109° East 488 562 37,000  Level FlightAware ADS-B
Sun 07:04:32 PM 36.3700 -122.4810 109° East 488 562 37,000  Level FlightAware ADS-B
Sun 07:05:12 PM 36.3420 -122.3810 109° East 489 563 37,000  Level FlightAware ADS-B
Sun 07:05:57 PM 36.3070 -122.2540 109° East 492 566 37,000  Level FlightAware ADS-B
Sun 07:06:37 PM 36.2790 -122.1530 109° East 492 566 37,000  Level FlightAware ADS-B
Sun 07:07:22 PM 36.2440 -122.0290 109° East 491 565 37,000  Level FlightAware ADS-B
Sun 07:08:02 PM 36.2150 -121.9240 109° East 490 564 37,000  Level FlightAware ADS-B
Sun 07:08:47 PM 36.1810 -121.8050 109° East 489 563 37,000  Level FlightAware ADS-B
Sun 07:09:27 PM 36.1510 -121.6980 109° East 486 559 37,000  Level FlightAware ADS-B
Sun 07:10:07 PM 36.1240 -121.6030 109° East 486 559 37,000  Level FlightAware ADS-B
Sun 07:10:42 PM 36.0970 -121.5110 110° East 490 564 37,000  Level FlightAware ADS-B
Sun 07:11:32 PM 36.0560 -121.3670 109° East 493 567 37,000  Level FlightAware ADS-B
Sun 07:12:17 PM 36.0230 -121.2510 109° East 491 565 37,000  Level FlightAware ADS-B
Sun 07:12:57 PM 35.9930 -121.1480 110° East 486 559 37,000  Level FlightAware ADS-B
Sun 07:13:37 PM 35.9630 -121.0430 109° East 490 564 37,000  Level FlightAware ADS-B
Sun 07:14:12 PM 35.9370 -120.9540 110° East 491 565 37,000  Level FlightAware ADS-B
Sun 07:15:02 PM 35.8970 -120.8170 110° East 484 557 37,000  Level FlightAware ADS-B
Sun 07:15:42 PM 35.8660 -120.7140 110° East 484 557 37,000  Level FlightAware ADS-B
Sun 07:16:27 PM 35.8330 -120.6000 110° East 488 562 37,000  Level FlightAware ADS-B
Sun 07:17:07 PM 35.8010 -120.4930 110° East 490 564 37,000  Level FlightAware ADS-B
Sun 07:17:52 PM 35.7650 -120.3730 110° East 492 566 37,000  Level FlightAware ADS-B
Sun 07:18:32 PM 35.7360 -120.2740 110° East 496 571 37,000  Level FlightAware ADS-B
Sun 07:19:12 PM 35.7000 -120.1630 112° Southeast 494 568 37,000 -141 Level FlightAware ADS-B
Sun 07:19:57 PM 35.6500 -120.0540 119° Southeast 486 559 36,800 -560 Descending FlightAware ADS-B
Sun 07:20:27 PM 35.6090 -119.9880 127° Southeast 494 568 36,300 -1,029 Descending FlightAware ADS-B
Sun 07:21:07 PM 35.5460 -119.9050 133° Southeast 491 565 35,600 -975 Descending FlightAware ADS-B
Sun 07:21:47 PM 35.4790 -119.8380 141° Southeast 481 554 35,000 -1,341 Descending FlightAware ADS-B
Sun 07:22:32 PM 35.3950 -119.7630 144° Southeast 476 548 33,700 -1,906 Descending FlightAware ADS-B
Sun 07:23:12 PM 35.3250 -119.7010 144° Southeast 463 533 32,300 -2,100 Descending FlightAware ADS-B
Sun 07:23:52 PM 35.2550 -119.6410 145° Southeast 448 516 30,900 -2,047 Descending FlightAware ADS-B
Sun 07:24:37 PM 35.1830 -119.5790 145° Southeast 433 498 29,400 -1,976 Descending FlightAware ADS-B
Sun 07:25:17 PM 35.1190 -119.5240 145° Southeast 420 483 28,100 -1,971 Descending FlightAware ADS-B
Sun 07:25:47 PM 35.0710 -119.4840 146° Southeast 416 479 27,100 -1,886 Descending FlightAware ADS-B
Sun 07:26:27 PM 35.0140 -119.4350 145° Southeast 409 471 25,900 -1,260 Descending FlightAware ADS-B
Sun 07:27:27 PM 34.9250 -119.3590 145° Southeast 401 461 25,000 -540 Descending FlightAware ADS-B
Sun 07:28:07 PM 34.8730 -119.3150 145° Southeast 401 461 25,000 -2,700 Level FlightAware ADS-B
Sun 07:28:47 PM 34.8010 -119.2540 145° Southeast 372 428 21,400 -3,529 Descending FlightAware ADS-B
Sun 07:29:32 PM 34.7380 -119.2010 145° Southeast 364 419 20,000 -1,560 Descending FlightAware ADS-B
Sun 07:30:27 PM 34.6680 -119.1420 145° Southeast 367 422 18,800 -800 Descending FlightAware ADS-B
Sun 07:31:02 PM 34.6220 -119.1030 145° Southeast 367 422 18,800  Level FlightAware ADS-B
Sun 07:31:52 PM 34.5630 -119.0530 145° Southeast 367 422 18,800  Level FlightAware ADS-B
Sun 07:32:32 PM 34.5160 -119.0130 145° Southeast 367 422 18,800  Level FlightAware ADS-B
Sun 07:33:12 PM 34.4680 -118.9720 145° Southeast 367 422 18,800  Level FlightAware ADS-B
Sun 07:33:52 PM 34.4210 -118.9320 145° Southeast 367 422 18,800 -2,538 Level FlightAware ADS-B
Sun 07:37:32 PM 34.1030 -118.8440 167° South 251 289 7,800 -2,756 Descending FlightAware ADS-B
Sun 07:38:22 PM 34.0440 -118.8350 173° South 241 277 6,400 -1,600 Descending FlightAware ADS-B
Sun 07:38:47 PM 34.0200 -118.8300 170° South 238 274 5,800 -720 Descending FlightAware ADS-B
Sun 07:39:12 PM 33.9940 -118.8210 164° South 238 274 5,800 -1,271 Level FlightAware ADS-B
Sun 07:40:12 PM 33.9360 -118.7810 150° Southeast 230 265 4,000 -1,120 Descending FlightAware ADS-B
Sun 07:41:42 PM 33.9240 -118.6760 98° East 180 207 3,000 -500 Descending FlightAware ADS-B
Sun 07:42:12 PM 33.9270 -118.6480 83° East 182 209 3,000  Level FlightAware ADS-B
Sun 07:42:22 PM 33.9280 -118.6370 84° East 182 209 3,000  Level FlightAware ADS-B
Sun 07:43:07 PM 33.9330 -118.5930 82° East 180 207 3,000 -600 Level FlightAware ADS-B
Sun 07:44:52 PM 33.9430 -118.4960 83° East 154 177 1,500 -909 Descending FlightAware ADS-B
Sun 07:45:52 PM 33.9500 -118.4500 83° East 139 160 500 -868 Descending Southern California TRACON
Sun 07:46:08 PM 33.9478 -118.4450 118° Southeast 137 158 400 -375 Descending Los Angeles Center
Sun 07:48:00 PM 33.9425 -118.4081 104° East  Level Estimated

Login

Don't have an account? Register now (free) for customized features, flight alerts, and more!